<?xml version="1.0" encoding="UTF-8" standalone="no" ?>
<gpx xmlns="http://www.topografix.com/GPX/1/1" xmlns:xsi="http://www.w3.org/2001/XMLSchema-instance" xsi:schemaLocation="http://www.topografix.com/GPX/1/1 http://www.topografix.com/GPX/1/1/gpx.xsd" version="1.1" creator="VisuGPX - https://www.visugpx.com">
  <metadata>
    <name>Velars sur ouche</name>
    <desc><![CDATA[Belle randonnée avec un peu de dénivelé mais agréable par beau temps.]]></desc>
  </metadata>
  <trk>
    <name><![CDATA[2017-10-24-01]]></name>
    <desc><![CDATA[Bon chemin ]]></desc>
    <trkseg>
      <trkpt lat="47.30893" lon="4.90312">
        <ele>388.7</ele>
        <time>2017-10-24T11:48:30Z</time>
      </trkpt>
      <trkpt lat="47.30893" lon="4.90312">
        <ele>390.4</ele>
        <time>2017-10-24T11:48:31Z</time>
      </trkpt>
      <trkpt lat="47.3089" lon="4.90315">
        <ele>397.3</ele>
        <time>2017-10-24T11:48:43Z</time>
      </trkpt>
      <trkpt lat="47.30882" lon="4.90306">
        <ele>396.4</ele>
        <time>2017-10-24T12:16:07Z</time>
      </trkpt>
      <trkpt lat="47.30873" lon="4.90301">
        <ele>396.2</ele>
        <time>2017-10-24T12:16:21Z</time>
      </trkpt>
      <trkpt lat="47.30864" lon="4.90304">
        <ele>396.6</ele>
        <time>2017-10-24T12:16:33Z</time>
      </trkpt>
      <trkpt lat="47.30854" lon="4.90308">
        <ele>396.4</ele>
        <time>2017-10-24T12:16:40Z</time>
      </trkpt>
      <trkpt lat="47.30845" lon="4.9031">
        <ele>396.1</ele>
        <time>2017-10-24T12:16:47Z</time>
      </trkpt>
      <trkpt lat="47.30835" lon="4.90311">
        <ele>396.2</ele>
        <time>2017-10-24T12:16:53Z</time>
      </trkpt>
      <trkpt lat="47.30827" lon="4.90324">
        <ele>398.1</ele>
        <time>2017-10-24T12:17:01Z</time>
      </trkpt>
      <trkpt lat="47.30818" lon="4.9032">
        <ele>400.2</ele>
        <time>2017-10-24T12:17:10Z</time>
      </trkpt>
      <trkpt lat="47.30809" lon="4.90316">
        <ele>402.2</ele>
        <time>2017-10-24T12:17:21Z</time>
      </trkpt>
      <trkpt lat="47.30802" lon="4.90327">
        <ele>403.9</ele>
        <time>2017-10-24T12:17:38Z</time>
      </trkpt>
      <trkpt lat="47.30793" lon="4.90331">
        <ele>404.3</ele>
        <time>2017-10-24T12:17:49Z</time>
      </trkpt>
      <trkpt lat="47.30785" lon="4.90337">
        <ele>405.3</ele>
        <time>2017-10-24T12:17:54Z</time>
      </trkpt>
      <trkpt lat="47.30777" lon="4.90343">
        <ele>405.6</ele>
        <time>2017-10-24T12:17:58Z</time>
      </trkpt>
      <trkpt lat="47.30769" lon="4.9035">
        <ele>406.3</ele>
        <time>2017-10-24T12:18:08Z</time>
      </trkpt>
      <trkpt lat="47.30759" lon="4.90353">
        <ele>406.3</ele>
        <time>2017-10-24T12:18:19Z</time>
      </trkpt>
      <trkpt lat="47.30749" lon="4.90359">
        <ele>407</ele>
        <time>2017-10-24T12:18:27Z</time>
      </trkpt>
      <trkpt lat="47.30741" lon="4.90365">
        <ele>407.4</ele>
        <time>2017-10-24T12:18:34Z</time>
      </trkpt>
      <trkpt lat="47.30733" lon="4.90375">
        <ele>407.1</ele>
        <time>2017-10-24T12:18:42Z</time>
      </trkpt>
      <trkpt lat="47.30724" lon="4.90385">
        <ele>407.3</ele>
        <time>2017-10-24T12:18:49Z</time>
      </trkpt>
      <trkpt lat="47.30716" lon="4.90393">
        <ele>408</ele>
        <time>2017-10-24T12:19:00Z</time>
      </trkpt>
      <trkpt lat="47.30709" lon="4.90402">
        <ele>408.6</ele>
        <time>2017-10-24T12:19:09Z</time>
      </trkpt>
      <trkpt lat="47.30701" lon="4.90409">
        <ele>409.3</ele>
        <time>2017-10-24T12:19:15Z</time>
      </trkpt>
      <trkpt lat="47.30693" lon="4.90417">
        <ele>409.6</ele>
        <time>2017-10-24T12:19:20Z</time>
      </trkpt>
      <trkpt lat="47.30685" lon="4.90426">
        <ele>411.7</ele>
        <time>2017-10-24T12:19:32Z</time>
      </trkpt>
      <trkpt lat="47.30676" lon="4.90433">
        <ele>413.3</ele>
        <time>2017-10-24T12:19:40Z</time>
      </trkpt>
      <trkpt lat="47.30669" lon="4.90442">
        <ele>415</ele>
        <time>2017-10-24T12:19:50Z</time>
      </trkpt>
      <trkpt lat="47.30658" lon="4.90444">
        <ele>416.3</ele>
        <time>2017-10-24T12:20:01Z</time>
      </trkpt>
      <trkpt lat="47.30649" lon="4.90446">
        <ele>418.4</ele>
        <time>2017-10-24T12:20:13Z</time>
      </trkpt>
      <trkpt lat="47.30638" lon="4.90447">
        <ele>418.4</ele>
        <time>2017-10-24T12:20:20Z</time>
      </trkpt>
      <trkpt lat="47.3063" lon="4.90452">
        <ele>417.9</ele>
        <time>2017-10-24T12:20:27Z</time>
      </trkpt>
      <trkpt lat="47.30622" lon="4.90459">
        <ele>417.7</ele>
        <time>2017-10-24T12:20:31Z</time>
      </trkpt>
      <trkpt lat="47.30612" lon="4.90456">
        <ele>417.4</ele>
        <time>2017-10-24T12:20:43Z</time>
      </trkpt>
      <trkpt lat="47.30602" lon="4.90455">
        <ele>415.9</ele>
        <time>2017-10-24T12:20:56Z</time>
      </trkpt>
      <trkpt lat="47.30593" lon="4.90456">
        <ele>416.1</ele>
        <time>2017-10-24T12:21:06Z</time>
      </trkpt>
      <trkpt lat="47.30583" lon="4.90457">
        <ele>416.9</ele>
        <time>2017-10-24T12:21:13Z</time>
      </trkpt>
      <trkpt lat="47.30573" lon="4.90456">
        <ele>418.6</ele>
        <time>2017-10-24T12:21:25Z</time>
      </trkpt>
      <trkpt lat="47.30563" lon="4.90458">
        <ele>420.1</ele>
        <time>2017-10-24T12:21:36Z</time>
      </trkpt>
      <trkpt lat="47.30551" lon="4.90461">
        <ele>420.5</ele>
        <time>2017-10-24T12:21:41Z</time>
      </trkpt>
      <trkpt lat="47.30542" lon="4.90466">
        <ele>421.3</ele>
        <time>2017-10-24T12:21:51Z</time>
      </trkpt>
      <trkpt lat="47.30534" lon="4.90473">
        <ele>422.1</ele>
        <time>2017-10-24T12:22:00Z</time>
      </trkpt>
      <trkpt lat="47.30525" lon="4.90469">
        <ele>423.2</ele>
        <time>2017-10-24T12:22:06Z</time>
      </trkpt>
      <trkpt lat="47.30514" lon="4.90474">
        <ele>424.2</ele>
        <time>2017-10-24T12:22:14Z</time>
      </trkpt>
      <trkpt lat="47.30504" lon="4.90477">
        <ele>424.3</ele>
        <time>2017-10-24T12:22:22Z</time>
      </trkpt>
      <trkpt lat="47.3049" lon="4.90481">
        <ele>424.4</ele>
        <time>2017-10-24T12:22:26Z</time>
      </trkpt>
      <trkpt lat="47.3048" lon="4.90484">
        <ele>425.5</ele>
        <time>2017-10-24T12:22:41Z</time>
      </trkpt>
      <trkpt lat="47.3047" lon="4.90479">
        <ele>426.8</ele>
        <time>2017-10-24T12:22:49Z</time>
      </trkpt>
      <trkpt lat="47.30461" lon="4.90476">
        <ele>427.6</ele>
        <time>2017-10-24T12:23:04Z</time>
      </trkpt>
      <trkpt lat="47.30453" lon="4.9047">
        <ele>427.3</ele>
        <time>2017-10-24T12:23:14Z</time>
      </trkpt>
      <trkpt lat="47.30443" lon="4.90466">
        <ele>428.1</ele>
        <time>2017-10-24T12:23:26Z</time>
      </trkpt>
      <trkpt lat="47.30434" lon="4.90463">
        <ele>429.2</ele>
        <time>2017-10-24T12:23:31Z</time>
      </trkpt>
      <trkpt lat="47.30424" lon="4.90463">
        <ele>431.5</ele>
        <time>2017-10-24T12:23:38Z</time>
      </trkpt>
      <trkpt lat="47.30415" lon="4.9046">
        <ele>433.1</ele>
        <time>2017-10-24T12:23:46Z</time>
      </trkpt>
      <trkpt lat="47.30406" lon="4.90464">
        <ele>434.2</ele>
        <time>2017-10-24T12:24:05Z</time>
      </trkpt>
      <trkpt lat="47.30396" lon="4.90462">
        <ele>433.7</ele>
        <time>2017-10-24T12:24:17Z</time>
      </trkpt>
      <trkpt lat="47.30386" lon="4.90462">
        <ele>433.5</ele>
        <time>2017-10-24T12:24:40Z</time>
      </trkpt>
      <trkpt lat="47.30378" lon="4.90456">
        <ele>433.3</ele>
        <time>2017-10-24T12:24:46Z</time>
      </trkpt>
      <trkpt lat="47.30369" lon="4.90451">
        <ele>432.6</ele>
        <time>2017-10-24T12:24:57Z</time>
      </trkpt>
      <trkpt lat="47.30361" lon="4.90442">
        <ele>433</ele>
        <time>2017-10-24T12:25:00Z</time>
      </trkpt>
      <trkpt lat="47.30352" lon="4.90437">
        <ele>433.1</ele>
        <time>2017-10-24T12:25:04Z</time>
      </trkpt>
      <trkpt lat="47.30342" lon="4.90439">
        <ele>434</ele>
        <time>2017-10-24T12:25:11Z</time>
      </trkpt>
      <trkpt lat="47.30332" lon="4.90435">
        <ele>436</ele>
        <time>2017-10-24T12:25:26Z</time>
      </trkpt>
      <trkpt lat="47.30321" lon="4.90433">
        <ele>436.7</ele>
        <time>2017-10-24T12:25:39Z</time>
      </trkpt>
      <trkpt lat="47.30312" lon="4.90431">
        <ele>436.7</ele>
        <time>2017-10-24T12:25:48Z</time>
      </trkpt>
      <trkpt lat="47.30302" lon="4.90431">
        <ele>436.8</ele>
        <time>2017-10-24T12:25:58Z</time>
      </trkpt>
      <trkpt lat="47.30293" lon="4.90427">
        <ele>437.1</ele>
        <time>2017-10-24T12:26:09Z</time>
      </trkpt>
      <trkpt lat="47.30283" lon="4.90422">
        <ele>436.6</ele>
        <time>2017-10-24T12:26:20Z</time>
      </trkpt>
      <trkpt lat="47.30274" lon="4.9042">
        <ele>436.9</ele>
        <time>2017-10-24T12:26:31Z</time>
      </trkpt>
      <trkpt lat="47.30264" lon="4.90416">
        <ele>438</ele>
        <time>2017-10-24T12:26:40Z</time>
      </trkpt>
      <trkpt lat="47.30255" lon="4.90412">
        <ele>438.6</ele>
        <time>2017-10-24T12:26:45Z</time>
      </trkpt>
      <trkpt lat="47.30241" lon="4.90411">
        <ele>440.2</ele>
        <time>2017-10-24T12:26:55Z</time>
      </trkpt>
      <trkpt lat="47.30232" lon="4.9041">
        <ele>440.1</ele>
        <time>2017-10-24T12:27:06Z</time>
      </trkpt>
      <trkpt lat="47.30223" lon="4.90407">
        <ele>439.8</ele>
        <time>2017-10-24T12:27:20Z</time>
      </trkpt>
      <trkpt lat="47.30213" lon="4.904">
        <ele>439.8</ele>
        <time>2017-10-24T12:27:28Z</time>
      </trkpt>
      <trkpt lat="47.30204" lon="4.90397">
        <ele>440.1</ele>
        <time>2017-10-24T12:27:38Z</time>
      </trkpt>
      <trkpt lat="47.30194" lon="4.90396">
        <ele>439.9</ele>
        <time>2017-10-24T12:27:47Z</time>
      </trkpt>
      <trkpt lat="47.30186" lon="4.90404">
        <ele>440</ele>
        <time>2017-10-24T12:27:53Z</time>
      </trkpt>
      <trkpt lat="47.30177" lon="4.90401">
        <ele>439.6</ele>
        <time>2017-10-24T12:28:02Z</time>
      </trkpt>
      <trkpt lat="47.30166" lon="4.90399">
        <ele>438.2</ele>
        <time>2017-10-24T12:28:18Z</time>
      </trkpt>
      <trkpt lat="47.30157" lon="4.90399">
        <ele>438.3</ele>
        <time>2017-10-24T12:28:25Z</time>
      </trkpt>
      <trkpt lat="47.30147" lon="4.90401">
        <ele>438.8</ele>
        <time>2017-10-24T12:28:31Z</time>
      </trkpt>
      <trkpt lat="47.30139" lon="4.90407">
        <ele>439.4</ele>
        <time>2017-10-24T12:28:38Z</time>
      </trkpt>
      <trkpt lat="47.30129" lon="4.90408">
        <ele>440.4</ele>
        <time>2017-10-24T12:28:50Z</time>
      </trkpt>
      <trkpt lat="47.3012" lon="4.90412">
        <ele>440.9</ele>
        <time>2017-10-24T12:29:00Z</time>
      </trkpt>
      <trkpt lat="47.30111" lon="4.9041">
        <ele>440.2</ele>
        <time>2017-10-24T12:29:10Z</time>
      </trkpt>
      <trkpt lat="47.30101" lon="4.90406">
        <ele>439.7</ele>
        <time>2017-10-24T12:29:18Z</time>
      </trkpt>
      <trkpt lat="47.30092" lon="4.90404">
        <ele>439.9</ele>
        <time>2017-10-24T12:29:28Z</time>
      </trkpt>
      <trkpt lat="47.30083" lon="4.90402">
        <ele>439.5</ele>
        <time>2017-10-24T12:29:35Z</time>
      </trkpt>
      <trkpt lat="47.30073" lon="4.904">
        <ele>440.3</ele>
        <time>2017-10-24T12:29:47Z</time>
      </trkpt>
      <trkpt lat="47.30064" lon="4.90402">
        <ele>441.3</ele>
        <time>2017-10-24T12:29:58Z</time>
      </trkpt>
      <trkpt lat="47.30053" lon="4.90399">
        <ele>441.8</ele>
        <time>2017-10-24T12:30:02Z</time>
      </trkpt>
      <trkpt lat="47.30043" lon="4.90404">
        <ele>443.1</ele>
        <time>2017-10-24T12:30:10Z</time>
      </trkpt>
      <trkpt lat="47.30034" lon="4.90402">
        <ele>443.2</ele>
        <time>2017-10-24T12:30:17Z</time>
      </trkpt>
      <trkpt lat="47.30025" lon="4.90405">
        <ele>442.9</ele>
        <time>2017-10-24T12:30:28Z</time>
      </trkpt>
      <trkpt lat="47.30015" lon="4.90401">
        <ele>443.3</ele>
        <time>2017-10-24T12:30:37Z</time>
      </trkpt>
      <trkpt lat="47.30005" lon="4.90407">
        <ele>443.3</ele>
        <time>2017-10-24T12:30:47Z</time>
      </trkpt>
      <trkpt lat="47.29996" lon="4.90411">
        <ele>442.7</ele>
        <time>2017-10-24T12:30:57Z</time>
      </trkpt>
      <trkpt lat="47.29986" lon="4.90407">
        <ele>443.2</ele>
        <time>2017-10-24T12:31:07Z</time>
      </trkpt>
      <trkpt lat="47.29979" lon="4.9042">
        <ele>442.7</ele>
        <time>2017-10-24T12:31:14Z</time>
      </trkpt>
      <trkpt lat="47.29966" lon="4.90427">
        <ele>442.1</ele>
        <time>2017-10-24T12:31:28Z</time>
      </trkpt>
      <trkpt lat="47.29957" lon="4.90432">
        <ele>442.4</ele>
        <time>2017-10-24T12:31:37Z</time>
      </trkpt>
      <trkpt lat="47.2995" lon="4.90439">
        <ele>443.3</ele>
        <time>2017-10-24T12:31:44Z</time>
      </trkpt>
      <trkpt lat="47.2994" lon="4.90441">
        <ele>444.2</ele>
        <time>2017-10-24T12:31:54Z</time>
      </trkpt>
      <trkpt lat="47.29931" lon="4.90441">
        <ele>445.4</ele>
        <time>2017-10-24T12:32:06Z</time>
      </trkpt>
      <trkpt lat="47.29922" lon="4.90448">
        <ele>445.8</ele>
        <time>2017-10-24T12:32:11Z</time>
      </trkpt>
      <trkpt lat="47.29915" lon="4.90455">
        <ele>446.2</ele>
        <time>2017-10-24T12:32:16Z</time>
      </trkpt>
      <trkpt lat="47.29906" lon="4.90461">
        <ele>447.8</ele>
        <time>2017-10-24T12:32:28Z</time>
      </trkpt>
      <trkpt lat="47.29899" lon="4.90472">
        <ele>447.2</ele>
        <time>2017-10-24T12:32:41Z</time>
      </trkpt>
      <trkpt lat="47.29895" lon="4.90486">
        <ele>446.2</ele>
        <time>2017-10-24T12:32:47Z</time>
      </trkpt>
      <trkpt lat="47.29893" lon="4.90499">
        <ele>444.7</ele>
        <time>2017-10-24T12:32:56Z</time>
      </trkpt>
      <trkpt lat="47.29895" lon="4.90515">
        <ele>442.5</ele>
        <time>2017-10-24T12:33:05Z</time>
      </trkpt>
      <trkpt lat="47.29894" lon="4.9053">
        <ele>441.7</ele>
        <time>2017-10-24T12:33:13Z</time>
      </trkpt>
      <trkpt lat="47.29896" lon="4.90547">
        <ele>441.6</ele>
        <time>2017-10-24T12:33:22Z</time>
      </trkpt>
      <trkpt lat="47.29898" lon="4.9056">
        <ele>442.2</ele>
        <time>2017-10-24T12:33:27Z</time>
      </trkpt>
      <trkpt lat="47.29897" lon="4.90575">
        <ele>442.9</ele>
        <time>2017-10-24T12:33:34Z</time>
      </trkpt>
      <trkpt lat="47.29895" lon="4.9059">
        <ele>441.3</ele>
        <time>2017-10-24T12:33:45Z</time>
      </trkpt>
      <trkpt lat="47.29896" lon="4.90603">
        <ele>440.9</ele>
        <time>2017-10-24T12:33:53Z</time>
      </trkpt>
      <trkpt lat="47.29896" lon="4.90617">
        <ele>440.1</ele>
        <time>2017-10-24T12:34:10Z</time>
      </trkpt>
      <trkpt lat="47.29896" lon="4.90632">
        <ele>440.7</ele>
        <time>2017-10-24T12:34:23Z</time>
      </trkpt>
      <trkpt lat="47.29893" lon="4.90649">
        <ele>440.7</ele>
        <time>2017-10-24T12:34:25Z</time>
      </trkpt>
      <trkpt lat="47.29893" lon="4.90663">
        <ele>440.9</ele>
        <time>2017-10-24T12:34:34Z</time>
      </trkpt>
      <trkpt lat="47.29892" lon="4.90678">
        <ele>440.3</ele>
        <time>2017-10-24T12:34:45Z</time>
      </trkpt>
      <trkpt lat="47.29889" lon="4.9069">
        <ele>439.4</ele>
        <time>2017-10-24T12:34:53Z</time>
      </trkpt>
      <trkpt lat="47.29887" lon="4.90703">
        <ele>438.1</ele>
        <time>2017-10-24T12:35:03Z</time>
      </trkpt>
      <trkpt lat="47.29886" lon="4.90718">
        <ele>437.6</ele>
        <time>2017-10-24T12:35:11Z</time>
      </trkpt>
      <trkpt lat="47.29886" lon="4.90732">
        <ele>438</ele>
        <time>2017-10-24T12:35:22Z</time>
      </trkpt>
      <trkpt lat="47.29884" lon="4.90745">
        <ele>438.6</ele>
        <time>2017-10-24T12:35:30Z</time>
      </trkpt>
      <trkpt lat="47.2988" lon="4.90758">
        <ele>439.8</ele>
        <time>2017-10-24T12:35:36Z</time>
      </trkpt>
      <trkpt lat="47.29877" lon="4.90771">
        <ele>440</ele>
        <time>2017-10-24T12:35:49Z</time>
      </trkpt>
      <trkpt lat="47.29872" lon="4.90785">
        <ele>439.5</ele>
        <time>2017-10-24T12:35:54Z</time>
      </trkpt>
      <trkpt lat="47.29869" lon="4.90799">
        <ele>439.1</ele>
        <time>2017-10-24T12:36:01Z</time>
      </trkpt>
      <trkpt lat="47.29865" lon="4.90811">
        <ele>439.3</ele>
        <time>2017-10-24T12:36:09Z</time>
      </trkpt>
      <trkpt lat="47.29861" lon="4.90825">
        <ele>440.3</ele>
        <time>2017-10-24T12:36:17Z</time>
      </trkpt>
      <trkpt lat="47.29858" lon="4.90839">
        <ele>440.8</ele>
        <time>2017-10-24T12:36:21Z</time>
      </trkpt>
      <trkpt lat="47.29854" lon="4.90851">
        <ele>441.1</ele>
        <time>2017-10-24T12:36:29Z</time>
      </trkpt>
      <trkpt lat="47.29849" lon="4.90864">
        <ele>440.3</ele>
        <time>2017-10-24T12:36:40Z</time>
      </trkpt>
      <trkpt lat="47.29843" lon="4.90874">
        <ele>440</ele>
        <time>2017-10-24T12:36:46Z</time>
      </trkpt>
      <trkpt lat="47.29838" lon="4.90885">
        <ele>439.9</ele>
        <time>2017-10-24T12:36:54Z</time>
      </trkpt>
      <trkpt lat="47.29829" lon="4.90892">
        <ele>440.1</ele>
        <time>2017-10-24T12:37:03Z</time>
      </trkpt>
      <trkpt lat="47.2982" lon="4.90897">
        <ele>439.5</ele>
        <time>2017-10-24T12:37:14Z</time>
      </trkpt>
      <trkpt lat="47.29811" lon="4.90897">
        <ele>438.7</ele>
        <time>2017-10-24T12:37:25Z</time>
      </trkpt>
      <trkpt lat="47.29802" lon="4.909">
        <ele>437.8</ele>
        <time>2017-10-24T12:37:35Z</time>
      </trkpt>
      <trkpt lat="47.29791" lon="4.90897">
        <ele>436.5</ele>
        <time>2017-10-24T12:37:46Z</time>
      </trkpt>
      <trkpt lat="47.29781" lon="4.90894">
        <ele>435.3</ele>
        <time>2017-10-24T12:37:55Z</time>
      </trkpt>
      <trkpt lat="47.29772" lon="4.90892">
        <ele>435.5</ele>
        <time>2017-10-24T12:38:10Z</time>
      </trkpt>
      <trkpt lat="47.29761" lon="4.90887">
        <ele>435.4</ele>
        <time>2017-10-24T12:38:18Z</time>
      </trkpt>
      <trkpt lat="47.29752" lon="4.90889">
        <ele>435.7</ele>
        <time>2017-10-24T12:38:24Z</time>
      </trkpt>
      <trkpt lat="47.29741" lon="4.90891">
        <ele>437</ele>
        <time>2017-10-24T12:38:34Z</time>
      </trkpt>
      <trkpt lat="47.29731" lon="4.90893">
        <ele>437.9</ele>
        <time>2017-10-24T12:38:43Z</time>
      </trkpt>
      <trkpt lat="47.29721" lon="4.90892">
        <ele>438.4</ele>
        <time>2017-10-24T12:38:53Z</time>
      </trkpt>
      <trkpt lat="47.29712" lon="4.90889">
        <ele>439.2</ele>
        <time>2017-10-24T12:39:01Z</time>
      </trkpt>
      <trkpt lat="47.29702" lon="4.90892">
        <ele>439.8</ele>
        <time>2017-10-24T12:39:06Z</time>
      </trkpt>
      <trkpt lat="47.29693" lon="4.90892">
        <ele>441.6</ele>
        <time>2017-10-24T12:39:15Z</time>
      </trkpt>
      <trkpt lat="47.29683" lon="4.90891">
        <ele>443.3</ele>
        <time>2017-10-24T12:39:24Z</time>
      </trkpt>
      <trkpt lat="47.29672" lon="4.90893">
        <ele>444.9</ele>
        <time>2017-10-24T12:39:33Z</time>
      </trkpt>
      <trkpt lat="47.29663" lon="4.90897">
        <ele>445.7</ele>
        <time>2017-10-24T12:39:40Z</time>
      </trkpt>
      <trkpt lat="47.29654" lon="4.90893">
        <ele>446.7</ele>
        <time>2017-10-24T12:39:49Z</time>
      </trkpt>
      <trkpt lat="47.29644" lon="4.90897">
        <ele>445.2</ele>
        <time>2017-10-24T12:39:58Z</time>
      </trkpt>
      <trkpt lat="47.29634" lon="4.90894">
        <ele>443.2</ele>
        <time>2017-10-24T12:40:05Z</time>
      </trkpt>
      <trkpt lat="47.29624" lon="4.90893">
        <ele>443.7</ele>
        <time>2017-10-24T12:40:16Z</time>
      </trkpt>
      <trkpt lat="47.29615" lon="4.90894">
        <ele>442.8</ele>
        <time>2017-10-24T12:40:30Z</time>
      </trkpt>
      <trkpt lat="47.29605" lon="4.90893">
        <ele>441.8</ele>
        <time>2017-10-24T12:40:36Z</time>
      </trkpt>
      <trkpt lat="47.29595" lon="4.90892">
        <ele>440.5</ele>
        <time>2017-10-24T12:40:44Z</time>
      </trkpt>
      <trkpt lat="47.29586" lon="4.90889">
        <ele>439.3</ele>
        <time>2017-10-24T12:40:56Z</time>
      </trkpt>
      <trkpt lat="47.29577" lon="4.90887">
        <ele>438.9</ele>
        <time>2017-10-24T12:41:02Z</time>
      </trkpt>
      <trkpt lat="47.29567" lon="4.90882">
        <ele>439.7</ele>
        <time>2017-10-24T12:41:08Z</time>
      </trkpt>
      <trkpt lat="47.29557" lon="4.90883">
        <ele>441.3</ele>
        <time>2017-10-24T12:41:15Z</time>
      </trkpt>
      <trkpt lat="47.29549" lon="4.90878">
        <ele>442</ele>
        <time>2017-10-24T12:41:22Z</time>
      </trkpt>
      <trkpt lat="47.29537" lon="4.90875">
        <ele>443</ele>
        <time>2017-10-24T12:41:29Z</time>
      </trkpt>
      <trkpt lat="47.29527" lon="4.90873">
        <ele>445</ele>
        <time>2017-10-24T12:41:39Z</time>
      </trkpt>
      <trkpt lat="47.29518" lon="4.90871">
        <ele>446</ele>
        <time>2017-10-24T12:41:47Z</time>
      </trkpt>
      <trkpt lat="47.29507" lon="4.90874">
        <ele>445.6</ele>
        <time>2017-10-24T12:41:55Z</time>
      </trkpt>
      <trkpt lat="47.29498" lon="4.90873">
        <ele>443.8</ele>
        <time>2017-10-24T12:42:04Z</time>
      </trkpt>
      <trkpt lat="47.29488" lon="4.90874">
        <ele>441.2</ele>
        <time>2017-10-24T12:42:13Z</time>
      </trkpt>
      <trkpt lat="47.29479" lon="4.90869">
        <ele>440.3</ele>
        <time>2017-10-24T12:42:21Z</time>
      </trkpt>
      <trkpt lat="47.29471" lon="4.90867">
        <ele>440.2</ele>
        <time>2017-10-24T12:42:28Z</time>
      </trkpt>
      <trkpt lat="47.29461" lon="4.90861">
        <ele>440</ele>
        <time>2017-10-24T12:42:37Z</time>
      </trkpt>
      <trkpt lat="47.29452" lon="4.90857">
        <ele>441.3</ele>
        <time>2017-10-24T12:42:45Z</time>
      </trkpt>
      <trkpt lat="47.29442" lon="4.90856">
        <ele>443.6</ele>
        <time>2017-10-24T12:42:51Z</time>
      </trkpt>
      <trkpt lat="47.29432" lon="4.90855">
        <ele>445.5</ele>
        <time>2017-10-24T12:43:04Z</time>
      </trkpt>
      <trkpt lat="47.29423" lon="4.90853">
        <ele>446</ele>
        <time>2017-10-24T12:43:14Z</time>
      </trkpt>
      <trkpt lat="47.29414" lon="4.90852">
        <ele>444.6</ele>
        <time>2017-10-24T12:43:22Z</time>
      </trkpt>
      <trkpt lat="47.29404" lon="4.90848">
        <ele>443</ele>
        <time>2017-10-24T12:43:29Z</time>
      </trkpt>
      <trkpt lat="47.29393" lon="4.90845">
        <ele>442.4</ele>
        <time>2017-10-24T12:43:36Z</time>
      </trkpt>
      <trkpt lat="47.29382" lon="4.90843">
        <ele>441.8</ele>
        <time>2017-10-24T12:43:44Z</time>
      </trkpt>
      <trkpt lat="47.29372" lon="4.90843">
        <ele>442.4</ele>
        <time>2017-10-24T12:43:50Z</time>
      </trkpt>
      <trkpt lat="47.29363" lon="4.90841">
        <ele>443.2</ele>
        <time>2017-10-24T12:43:56Z</time>
      </trkpt>
      <trkpt lat="47.29354" lon="4.90838">
        <ele>444.6</ele>
        <time>2017-10-24T12:44:03Z</time>
      </trkpt>
      <trkpt lat="47.29343" lon="4.90839">
        <ele>445.5</ele>
        <time>2017-10-24T12:44:11Z</time>
      </trkpt>
      <trkpt lat="47.29334" lon="4.9084">
        <ele>447.3</ele>
        <time>2017-10-24T12:44:20Z</time>
      </trkpt>
      <trkpt lat="47.29324" lon="4.90843">
        <ele>448.6</ele>
        <time>2017-10-24T12:44:27Z</time>
      </trkpt>
      <trkpt lat="47.29314" lon="4.90836">
        <ele>448.6</ele>
        <time>2017-10-24T12:44:36Z</time>
      </trkpt>
      <trkpt lat="47.29307" lon="4.90829">
        <ele>446.2</ele>
        <time>2017-10-24T12:44:45Z</time>
      </trkpt>
      <trkpt lat="47.29298" lon="4.90821">
        <ele>445.2</ele>
        <time>2017-10-24T12:44:55Z</time>
      </trkpt>
      <trkpt lat="47.29287" lon="4.90821">
        <ele>446.5</ele>
        <time>2017-10-24T12:45:02Z</time>
      </trkpt>
      <trkpt lat="47.29277" lon="4.90816">
        <ele>447.1</ele>
        <time>2017-10-24T12:45:12Z</time>
      </trkpt>
      <trkpt lat="47.29267" lon="4.90812">
        <ele>445.6</ele>
        <time>2017-10-24T12:45:23Z</time>
      </trkpt>
      <trkpt lat="47.29257" lon="4.9081">
        <ele>445.8</ele>
        <time>2017-10-24T12:45:28Z</time>
      </trkpt>
      <trkpt lat="47.29247" lon="4.90808">
        <ele>446.5</ele>
        <time>2017-10-24T12:45:36Z</time>
      </trkpt>
      <trkpt lat="47.29237" lon="4.90803">
        <ele>448</ele>
        <time>2017-10-24T12:45:50Z</time>
      </trkpt>
      <trkpt lat="47.29228" lon="4.90802">
        <ele>446.7</ele>
        <time>2017-10-24T12:46:05Z</time>
      </trkpt>
      <trkpt lat="47.29219" lon="4.90796">
        <ele>439.5</ele>
        <time>2017-10-24T12:47:28Z</time>
      </trkpt>
      <trkpt lat="47.29211" lon="4.90788">
        <ele>439</ele>
        <time>2017-10-24T12:47:36Z</time>
      </trkpt>
      <trkpt lat="47.29204" lon="4.9078">
        <ele>438.8</ele>
        <time>2017-10-24T12:47:42Z</time>
      </trkpt>
      <trkpt lat="47.29195" lon="4.90776">
        <ele>439.3</ele>
        <time>2017-10-24T12:47:54Z</time>
      </trkpt>
      <trkpt lat="47.29185" lon="4.90774">
        <ele>439.8</ele>
        <time>2017-10-24T12:48:02Z</time>
      </trkpt>
      <trkpt lat="47.29176" lon="4.90771">
        <ele>440.4</ele>
        <time>2017-10-24T12:48:09Z</time>
      </trkpt>
      <trkpt lat="47.29166" lon="4.90771">
        <ele>441.4</ele>
        <time>2017-10-24T12:48:14Z</time>
      </trkpt>
      <trkpt lat="47.29157" lon="4.90767">
        <ele>443.4</ele>
        <time>2017-10-24T12:48:21Z</time>
      </trkpt>
      <trkpt lat="47.29148" lon="4.90759">
        <ele>446.3</ele>
        <time>2017-10-24T12:48:29Z</time>
      </trkpt>
      <trkpt lat="47.2914" lon="4.90751">
        <ele>450.4</ele>
        <time>2017-10-24T12:48:39Z</time>
      </trkpt>
      <trkpt lat="47.2913" lon="4.90749">
        <ele>454.4</ele>
        <time>2017-10-24T12:48:49Z</time>
      </trkpt>
      <trkpt lat="47.29121" lon="4.90749">
        <ele>456.8</ele>
        <time>2017-10-24T12:48:55Z</time>
      </trkpt>
      <trkpt lat="47.29112" lon="4.90746">
        <ele>458.5</ele>
        <time>2017-10-24T12:49:03Z</time>
      </trkpt>
      <trkpt lat="47.29102" lon="4.90743">
        <ele>458.3</ele>
        <time>2017-10-24T12:49:11Z</time>
      </trkpt>
      <trkpt lat="47.29093" lon="4.90738">
        <ele>458.2</ele>
        <time>2017-10-24T12:49:22Z</time>
      </trkpt>
      <trkpt lat="47.29084" lon="4.90736">
        <ele>456.4</ele>
        <time>2017-10-24T12:49:30Z</time>
      </trkpt>
      <trkpt lat="47.29075" lon="4.90732">
        <ele>453.5</ele>
        <time>2017-10-24T12:49:41Z</time>
      </trkpt>
      <trkpt lat="47.29066" lon="4.90729">
        <ele>452.6</ele>
        <time>2017-10-24T12:49:52Z</time>
      </trkpt>
      <trkpt lat="47.29057" lon="4.90727">
        <ele>451.9</ele>
        <time>2017-10-24T12:49:59Z</time>
      </trkpt>
      <trkpt lat="47.29047" lon="4.90726">
        <ele>452.3</ele>
        <time>2017-10-24T12:50:04Z</time>
      </trkpt>
      <trkpt lat="47.29038" lon="4.90727">
        <ele>454</ele>
        <time>2017-10-24T12:50:12Z</time>
      </trkpt>
      <trkpt lat="47.29029" lon="4.90722">
        <ele>456.2</ele>
        <time>2017-10-24T12:50:22Z</time>
      </trkpt>
      <trkpt lat="47.29019" lon="4.90719">
        <ele>457.6</ele>
        <time>2017-10-24T12:50:30Z</time>
      </trkpt>
      <trkpt lat="47.2901" lon="4.90715">
        <ele>459.9</ele>
        <time>2017-10-24T12:50:40Z</time>
      </trkpt>
      <trkpt lat="47.29001" lon="4.90713">
        <ele>461</ele>
        <time>2017-10-24T12:50:47Z</time>
      </trkpt>
      <trkpt lat="47.28992" lon="4.9071">
        <ele>461.3</ele>
        <time>2017-10-24T12:50:53Z</time>
      </trkpt>
      <trkpt lat="47.28983" lon="4.90707">
        <ele>460.9</ele>
        <time>2017-10-24T12:51:02Z</time>
      </trkpt>
      <trkpt lat="47.28974" lon="4.90703">
        <ele>461</ele>
        <time>2017-10-24T12:51:08Z</time>
      </trkpt>
      <trkpt lat="47.28964" lon="4.90699">
        <ele>462.8</ele>
        <time>2017-10-24T12:51:20Z</time>
      </trkpt>
      <trkpt lat="47.28956" lon="4.90694">
        <ele>463.9</ele>
        <time>2017-10-24T12:51:29Z</time>
      </trkpt>
      <trkpt lat="47.28946" lon="4.90692">
        <ele>463.6</ele>
        <time>2017-10-24T12:51:38Z</time>
      </trkpt>
      <trkpt lat="47.28937" lon="4.90689">
        <ele>462</ele>
        <time>2017-10-24T12:51:54Z</time>
      </trkpt>
      <trkpt lat="47.28928" lon="4.90682">
        <ele>459.8</ele>
        <time>2017-10-24T12:52:03Z</time>
      </trkpt>
      <trkpt lat="47.28921" lon="4.90675">
        <ele>457.5</ele>
        <time>2017-10-24T12:52:15Z</time>
      </trkpt>
      <trkpt lat="47.28911" lon="4.90669">
        <ele>455.2</ele>
        <time>2017-10-24T12:52:26Z</time>
      </trkpt>
      <trkpt lat="47.28902" lon="4.90663">
        <ele>454.6</ele>
        <time>2017-10-24T12:52:30Z</time>
      </trkpt>
      <trkpt lat="47.28894" lon="4.90656">
        <ele>455.6</ele>
        <time>2017-10-24T12:52:40Z</time>
      </trkpt>
      <trkpt lat="47.28884" lon="4.90652">
        <ele>455.8</ele>
        <time>2017-10-24T12:52:45Z</time>
      </trkpt>
      <trkpt lat="47.28876" lon="4.90645">
        <ele>457.2</ele>
        <time>2017-10-24T12:52:52Z</time>
      </trkpt>
      <trkpt lat="47.28868" lon="4.90639">
        <ele>459.7</ele>
        <time>2017-10-24T12:53:07Z</time>
      </trkpt>
      <trkpt lat="47.28855" lon="4.90641">
        <ele>459.7</ele>
        <time>2017-10-24T12:53:19Z</time>
      </trkpt>
      <trkpt lat="47.28845" lon="4.90635">
        <ele>460</ele>
        <time>2017-10-24T12:53:23Z</time>
      </trkpt>
      <trkpt lat="47.28837" lon="4.90628">
        <ele>460.7</ele>
        <time>2017-10-24T12:53:37Z</time>
      </trkpt>
      <trkpt lat="47.28829" lon="4.90619">
        <ele>461.5</ele>
        <time>2017-10-24T12:53:44Z</time>
      </trkpt>
      <trkpt lat="47.2882" lon="4.90612">
        <ele>461.6</ele>
        <time>2017-10-24T12:53:53Z</time>
      </trkpt>
      <trkpt lat="47.2881" lon="4.90608">
        <ele>461.7</ele>
        <time>2017-10-24T12:54:03Z</time>
      </trkpt>
      <trkpt lat="47.28801" lon="4.90604">
        <ele>461.3</ele>
        <time>2017-10-24T12:54:07Z</time>
      </trkpt>
      <trkpt lat="47.2879" lon="4.90602">
        <ele>460.7</ele>
        <time>2017-10-24T12:54:19Z</time>
      </trkpt>
      <trkpt lat="47.2878" lon="4.90596">
        <ele>460</ele>
        <time>2017-10-24T12:54:25Z</time>
      </trkpt>
      <trkpt lat="47.2877" lon="4.90592">
        <ele>460.6</ele>
        <time>2017-10-24T12:54:36Z</time>
      </trkpt>
      <trkpt lat="47.28761" lon="4.90592">
        <ele>460.5</ele>
        <time>2017-10-24T12:54:41Z</time>
      </trkpt>
      <trkpt lat="47.28753" lon="4.90586">
        <ele>457.9</ele>
        <time>2017-10-24T12:54:58Z</time>
      </trkpt>
      <trkpt lat="47.28742" lon="4.90581">
        <ele>455.9</ele>
        <time>2017-10-24T12:55:09Z</time>
      </trkpt>
      <trkpt lat="47.28733" lon="4.90575">
        <ele>455.1</ele>
        <time>2017-10-24T12:55:17Z</time>
      </trkpt>
      <trkpt lat="47.28722" lon="4.90575">
        <ele>455.3</ele>
        <time>2017-10-24T12:55:29Z</time>
      </trkpt>
      <trkpt lat="47.28711" lon="4.90576">
        <ele>454.4</ele>
        <time>2017-10-24T12:55:38Z</time>
      </trkpt>
      <trkpt lat="47.28701" lon="4.90573">
        <ele>454.4</ele>
        <time>2017-10-24T12:55:45Z</time>
      </trkpt>
      <trkpt lat="47.28691" lon="4.90572">
        <ele>454.3</ele>
        <time>2017-10-24T12:55:49Z</time>
      </trkpt>
      <trkpt lat="47.28682" lon="4.90571">
        <ele>453.7</ele>
        <time>2017-10-24T12:55:57Z</time>
      </trkpt>
      <trkpt lat="47.28671" lon="4.90568">
        <ele>451.8</ele>
        <time>2017-10-24T12:56:07Z</time>
      </trkpt>
      <trkpt lat="47.28661" lon="4.90563">
        <ele>450.9</ele>
        <time>2017-10-24T12:56:18Z</time>
      </trkpt>
      <trkpt lat="47.28652" lon="4.9056">
        <ele>450.6</ele>
        <time>2017-10-24T12:56:21Z</time>
      </trkpt>
      <trkpt lat="47.28643" lon="4.90559">
        <ele>451.3</ele>
        <time>2017-10-24T12:56:32Z</time>
      </trkpt>
      <trkpt lat="47.28633" lon="4.90557">
        <ele>451.5</ele>
        <time>2017-10-24T12:56:36Z</time>
      </trkpt>
      <trkpt lat="47.28623" lon="4.90551">
        <ele>451.3</ele>
        <time>2017-10-24T12:56:43Z</time>
      </trkpt>
      <trkpt lat="47.28614" lon="4.90548">
        <ele>452.1</ele>
        <time>2017-10-24T12:56:51Z</time>
      </trkpt>
      <trkpt lat="47.28605" lon="4.90545">
        <ele>452</ele>
        <time>2017-10-24T12:56:59Z</time>
      </trkpt>
      <trkpt lat="47.28595" lon="4.90541">
        <ele>450.5</ele>
        <time>2017-10-24T12:57:07Z</time>
      </trkpt>
      <trkpt lat="47.28585" lon="4.90538">
        <ele>450.6</ele>
        <time>2017-10-24T12:57:17Z</time>
      </trkpt>
      <trkpt lat="47.28576" lon="4.90535">
        <ele>451.6</ele>
        <time>2017-10-24T12:57:25Z</time>
      </trkpt>
      <trkpt lat="47.28566" lon="4.90532">
        <ele>452.7</ele>
        <time>2017-10-24T12:57:40Z</time>
      </trkpt>
      <trkpt lat="47.28558" lon="4.90525">
        <ele>452.4</ele>
        <time>2017-10-24T12:57:44Z</time>
      </trkpt>
      <trkpt lat="47.28549" lon="4.90519">
        <ele>449.9</ele>
        <time>2017-10-24T12:57:54Z</time>
      </trkpt>
      <trkpt lat="47.2854" lon="4.90516">
        <ele>448.7</ele>
        <time>2017-10-24T12:58:01Z</time>
      </trkpt>
      <trkpt lat="47.2853" lon="4.90515">
        <ele>448.3</ele>
        <time>2017-10-24T12:58:06Z</time>
      </trkpt>
      <trkpt lat="47.2852" lon="4.90512">
        <ele>447.8</ele>
        <time>2017-10-24T12:58:15Z</time>
      </trkpt>
      <trkpt lat="47.2851" lon="4.90509">
        <ele>445.4</ele>
        <time>2017-10-24T12:58:28Z</time>
      </trkpt>
      <trkpt lat="47.285" lon="4.90504">
        <ele>444</ele>
        <time>2017-10-24T12:58:36Z</time>
      </trkpt>
      <trkpt lat="47.28491" lon="4.905">
        <ele>444</ele>
        <time>2017-10-24T12:58:44Z</time>
      </trkpt>
      <trkpt lat="47.28482" lon="4.90497">
        <ele>446.4</ele>
        <time>2017-10-24T12:58:56Z</time>
      </trkpt>
      <trkpt lat="47.28472" lon="4.90495">
        <ele>448.6</ele>
        <time>2017-10-24T12:59:10Z</time>
      </trkpt>
      <trkpt lat="47.28462" lon="4.90493">
        <ele>449.7</ele>
        <time>2017-10-24T12:59:15Z</time>
      </trkpt>
      <trkpt lat="47.28455" lon="4.90485">
        <ele>450.2</ele>
        <time>2017-10-24T12:59:19Z</time>
      </trkpt>
      <trkpt lat="47.28446" lon="4.90478">
        <ele>450.6</ele>
        <time>2017-10-24T12:59:25Z</time>
      </trkpt>
      <trkpt lat="47.28437" lon="4.90477">
        <ele>447.6</ele>
        <time>2017-10-24T12:59:44Z</time>
      </trkpt>
      <trkpt lat="47.28428" lon="4.90472">
        <ele>446.8</ele>
        <time>2017-10-24T12:59:49Z</time>
      </trkpt>
      <trkpt lat="47.28418" lon="4.90471">
        <ele>446.5</ele>
        <time>2017-10-24T12:59:55Z</time>
      </trkpt>
      <trkpt lat="47.28409" lon="4.90469">
        <ele>447.2</ele>
        <time>2017-10-24T13:00:02Z</time>
      </trkpt>
      <trkpt lat="47.28398" lon="4.90467">
        <ele>448.5</ele>
        <time>2017-10-24T13:00:12Z</time>
      </trkpt>
      <trkpt lat="47.28388" lon="4.90467">
        <ele>449.2</ele>
        <time>2017-10-24T13:00:19Z</time>
      </trkpt>
      <trkpt lat="47.28379" lon="4.90463">
        <ele>449.7</ele>
        <time>2017-10-24T13:00:26Z</time>
      </trkpt>
      <trkpt lat="47.28369" lon="4.90461">
        <ele>450.1</ele>
        <time>2017-10-24T13:00:33Z</time>
      </trkpt>
      <trkpt lat="47.2836" lon="4.90453">
        <ele>449.8</ele>
        <time>2017-10-24T13:00:43Z</time>
      </trkpt>
      <trkpt lat="47.28349" lon="4.90446">
        <ele>448.1</ele>
        <time>2017-10-24T13:01:00Z</time>
      </trkpt>
      <trkpt lat="47.28339" lon="4.90446">
        <ele>447</ele>
        <time>2017-10-24T13:01:09Z</time>
      </trkpt>
      <trkpt lat="47.28328" lon="4.90444">
        <ele>448</ele>
        <time>2017-10-24T13:01:20Z</time>
      </trkpt>
      <trkpt lat="47.28316" lon="4.90436">
        <ele>449</ele>
        <time>2017-10-24T13:01:26Z</time>
      </trkpt>
      <trkpt lat="47.28306" lon="4.90437">
        <ele>449.6</ele>
        <time>2017-10-24T13:01:32Z</time>
      </trkpt>
      <trkpt lat="47.28297" lon="4.90439">
        <ele>448.8</ele>
        <time>2017-10-24T13:01:44Z</time>
      </trkpt>
      <trkpt lat="47.28287" lon="4.90432">
        <ele>445.4</ele>
        <time>2017-10-24T13:01:57Z</time>
      </trkpt>
      <trkpt lat="47.28278" lon="4.90427">
        <ele>444.5</ele>
        <time>2017-10-24T13:02:03Z</time>
      </trkpt>
      <trkpt lat="47.28267" lon="4.90424">
        <ele>443.7</ele>
        <time>2017-10-24T13:02:08Z</time>
      </trkpt>
      <trkpt lat="47.28256" lon="4.90424">
        <ele>442.7</ele>
        <time>2017-10-24T13:02:13Z</time>
      </trkpt>
      <trkpt lat="47.28247" lon="4.90417">
        <ele>438.9</ele>
        <time>2017-10-24T13:02:29Z</time>
      </trkpt>
      <trkpt lat="47.28237" lon="4.90411">
        <ele>436.3</ele>
        <time>2017-10-24T13:02:37Z</time>
      </trkpt>
      <trkpt lat="47.28229" lon="4.90402">
        <ele>433.4</ele>
        <time>2017-10-24T13:02:47Z</time>
      </trkpt>
      <trkpt lat="47.28221" lon="4.90396">
        <ele>431.8</ele>
        <time>2017-10-24T13:02:53Z</time>
      </trkpt>
      <trkpt lat="47.28212" lon="4.90392">
        <ele>430.3</ele>
        <time>2017-10-24T13:03:01Z</time>
      </trkpt>
      <trkpt lat="47.28203" lon="4.90388">
        <ele>428.9</ele>
        <time>2017-10-24T13:03:06Z</time>
      </trkpt>
      <trkpt lat="47.28195" lon="4.90381">
        <ele>427.8</ele>
        <time>2017-10-24T13:03:14Z</time>
      </trkpt>
      <trkpt lat="47.28188" lon="4.90373">
        <ele>427.1</ele>
        <time>2017-10-24T13:03:20Z</time>
      </trkpt>
      <trkpt lat="47.28181" lon="4.90363">
        <ele>427.6</ele>
        <time>2017-10-24T13:03:27Z</time>
      </trkpt>
      <trkpt lat="47.28173" lon="4.90354">
        <ele>427.9</ele>
        <time>2017-10-24T13:03:36Z</time>
      </trkpt>
      <trkpt lat="47.28165" lon="4.90351">
        <ele>428.3</ele>
        <time>2017-10-24T13:03:42Z</time>
      </trkpt>
      <trkpt lat="47.28157" lon="4.90343">
        <ele>428.6</ele>
        <time>2017-10-24T13:03:56Z</time>
      </trkpt>
      <trkpt lat="47.28149" lon="4.90333">
        <ele>427.6</ele>
        <time>2017-10-24T13:04:07Z</time>
      </trkpt>
      <trkpt lat="47.28141" lon="4.90328">
        <ele>426.2</ele>
        <time>2017-10-24T13:04:16Z</time>
      </trkpt>
      <trkpt lat="47.28132" lon="4.90321">
        <ele>426</ele>
        <time>2017-10-24T13:04:23Z</time>
      </trkpt>
      <trkpt lat="47.28123" lon="4.90317">
        <ele>425.8</ele>
        <time>2017-10-24T13:04:32Z</time>
      </trkpt>
      <trkpt lat="47.28114" lon="4.90311">
        <ele>425.6</ele>
        <time>2017-10-24T13:04:41Z</time>
      </trkpt>
      <trkpt lat="47.28105" lon="4.90305">
        <ele>424.6</ele>
        <time>2017-10-24T13:04:50Z</time>
      </trkpt>
      <trkpt lat="47.28096" lon="4.90298">
        <ele>424</ele>
        <time>2017-10-24T13:04:57Z</time>
      </trkpt>
      <trkpt lat="47.28089" lon="4.9029">
        <ele>423.2</ele>
        <time>2017-10-24T13:05:05Z</time>
      </trkpt>
      <trkpt lat="47.28081" lon="4.90284">
        <ele>423.1</ele>
        <time>2017-10-24T13:05:11Z</time>
      </trkpt>
      <trkpt lat="47.28071" lon="4.90279">
        <ele>423</ele>
        <time>2017-10-24T13:05:21Z</time>
      </trkpt>
      <trkpt lat="47.28062" lon="4.90273">
        <ele>423.6</ele>
        <time>2017-10-24T13:05:28Z</time>
      </trkpt>
      <trkpt lat="47.28054" lon="4.90267">
        <ele>424.3</ele>
        <time>2017-10-24T13:05:37Z</time>
      </trkpt>
      <trkpt lat="47.28045" lon="4.90261">
        <ele>424.7</ele>
        <time>2017-10-24T13:05:46Z</time>
      </trkpt>
      <trkpt lat="47.28036" lon="4.90255">
        <ele>425.1</ele>
        <time>2017-10-24T13:05:54Z</time>
      </trkpt>
      <trkpt lat="47.28028" lon="4.90248">
        <ele>425.8</ele>
        <time>2017-10-24T13:06:03Z</time>
      </trkpt>
      <trkpt lat="47.28019" lon="4.90241">
        <ele>426.4</ele>
        <time>2017-10-24T13:06:11Z</time>
      </trkpt>
      <trkpt lat="47.28012" lon="4.90232">
        <ele>427</ele>
        <time>2017-10-24T13:06:17Z</time>
      </trkpt>
      <trkpt lat="47.28004" lon="4.90224">
        <ele>427.4</ele>
        <time>2017-10-24T13:06:28Z</time>
      </trkpt>
      <trkpt lat="47.27997" lon="4.90214">
        <ele>427.5</ele>
        <time>2017-10-24T13:06:39Z</time>
      </trkpt>
      <trkpt lat="47.2799" lon="4.90204">
        <ele>427.6</ele>
        <time>2017-10-24T13:06:46Z</time>
      </trkpt>
      <trkpt lat="47.27982" lon="4.90194">
        <ele>427.7</ele>
        <time>2017-10-24T13:06:55Z</time>
      </trkpt>
      <trkpt lat="47.27975" lon="4.90186">
        <ele>427.7</ele>
        <time>2017-10-24T13:07:02Z</time>
      </trkpt>
      <trkpt lat="47.27967" lon="4.90176">
        <ele>428</ele>
        <time>2017-10-24T13:07:11Z</time>
      </trkpt>
      <trkpt lat="47.2796" lon="4.90168">
        <ele>428.2</ele>
        <time>2017-10-24T13:07:19Z</time>
      </trkpt>
      <trkpt lat="47.27952" lon="4.9016">
        <ele>428.3</ele>
        <time>2017-10-24T13:07:28Z</time>
      </trkpt>
      <trkpt lat="47.27945" lon="4.9015">
        <ele>428.8</ele>
        <time>2017-10-24T13:07:36Z</time>
      </trkpt>
      <trkpt lat="47.27938" lon="4.90141">
        <ele>428.7</ele>
        <time>2017-10-24T13:07:47Z</time>
      </trkpt>
      <trkpt lat="47.27929" lon="4.90135">
        <ele>428</ele>
        <time>2017-10-24T13:07:56Z</time>
      </trkpt>
      <trkpt lat="47.27921" lon="4.90129">
        <ele>428</ele>
        <time>2017-10-24T13:08:04Z</time>
      </trkpt>
      <trkpt lat="47.27912" lon="4.90124">
        <ele>428.5</ele>
        <time>2017-10-24T13:08:10Z</time>
      </trkpt>
      <trkpt lat="47.27904" lon="4.90115">
        <ele>428.9</ele>
        <time>2017-10-24T13:08:18Z</time>
      </trkpt>
      <trkpt lat="47.27897" lon="4.90107">
        <ele>429.4</ele>
        <time>2017-10-24T13:08:26Z</time>
      </trkpt>
      <trkpt lat="47.27888" lon="4.90098">
        <ele>429.5</ele>
        <time>2017-10-24T13:08:35Z</time>
      </trkpt>
      <trkpt lat="47.27881" lon="4.90091">
        <ele>429.5</ele>
        <time>2017-10-24T13:08:43Z</time>
      </trkpt>
      <trkpt lat="47.27871" lon="4.90084">
        <ele>429.2</ele>
        <time>2017-10-24T13:08:51Z</time>
      </trkpt>
      <trkpt lat="47.27863" lon="4.90075">
        <ele>429.2</ele>
        <time>2017-10-24T13:08:58Z</time>
      </trkpt>
      <trkpt lat="47.27855" lon="4.90069">
        <ele>429.2</ele>
        <time>2017-10-24T13:09:06Z</time>
      </trkpt>
      <trkpt lat="47.27847" lon="4.90059">
        <ele>429.1</ele>
        <time>2017-10-24T13:09:15Z</time>
      </trkpt>
      <trkpt lat="47.27838" lon="4.90051">
        <ele>429.1</ele>
        <time>2017-10-24T13:09:21Z</time>
      </trkpt>
      <trkpt lat="47.2783" lon="4.90041">
        <ele>429.2</ele>
        <time>2017-10-24T13:09:31Z</time>
      </trkpt>
      <trkpt lat="47.27821" lon="4.90036">
        <ele>429.4</ele>
        <time>2017-10-24T13:09:38Z</time>
      </trkpt>
      <trkpt lat="47.27811" lon="4.90035">
        <ele>430.4</ele>
        <time>2017-10-24T13:09:45Z</time>
      </trkpt>
      <trkpt lat="47.27801" lon="4.90036">
        <ele>431.3</ele>
        <time>2017-10-24T13:09:51Z</time>
      </trkpt>
      <trkpt lat="47.27793" lon="4.90042">
        <ele>432.4</ele>
        <time>2017-10-24T13:10:00Z</time>
      </trkpt>
      <trkpt lat="47.27785" lon="4.9005">
        <ele>433.4</ele>
        <time>2017-10-24T13:10:07Z</time>
      </trkpt>
      <trkpt lat="47.27777" lon="4.90056">
        <ele>433.7</ele>
        <time>2017-10-24T13:10:17Z</time>
      </trkpt>
      <trkpt lat="47.27767" lon="4.90062">
        <ele>433.4</ele>
        <time>2017-10-24T13:10:27Z</time>
      </trkpt>
      <trkpt lat="47.27758" lon="4.90064">
        <ele>433.7</ele>
        <time>2017-10-24T13:10:43Z</time>
      </trkpt>
      <trkpt lat="47.27748" lon="4.90065">
        <ele>433.8</ele>
        <time>2017-10-24T13:10:56Z</time>
      </trkpt>
      <trkpt lat="47.27739" lon="4.90062">
        <ele>433.4</ele>
        <time>2017-10-24T13:11:04Z</time>
      </trkpt>
      <trkpt lat="47.27747" lon="4.90066">
        <ele>434.7</ele>
        <time>2017-10-24T13:11:44Z</time>
      </trkpt>
      <trkpt lat="47.27739" lon="4.9006">
        <ele>435.6</ele>
        <time>2017-10-24T13:13:47Z</time>
      </trkpt>
      <trkpt lat="47.2773" lon="4.90054">
        <ele>435.5</ele>
        <time>2017-10-24T13:13:57Z</time>
      </trkpt>
      <trkpt lat="47.27722" lon="4.90046">
        <ele>435.6</ele>
        <time>2017-10-24T13:14:09Z</time>
      </trkpt>
      <trkpt lat="47.27714" lon="4.90037">
        <ele>435.5</ele>
        <time>2017-10-24T13:14:16Z</time>
      </trkpt>
      <trkpt lat="47.27706" lon="4.90029">
        <ele>436.1</ele>
        <time>2017-10-24T13:14:26Z</time>
      </trkpt>
      <trkpt lat="47.27697" lon="4.90022">
        <ele>436.7</ele>
        <time>2017-10-24T13:14:34Z</time>
      </trkpt>
      <trkpt lat="47.27689" lon="4.90015">
        <ele>436.8</ele>
        <time>2017-10-24T13:14:43Z</time>
      </trkpt>
      <trkpt lat="47.2768" lon="4.9001">
        <ele>437.4</ele>
        <time>2017-10-24T13:14:53Z</time>
      </trkpt>
      <trkpt lat="47.27671" lon="4.90004">
        <ele>438.2</ele>
        <time>2017-10-24T13:15:01Z</time>
      </trkpt>
      <trkpt lat="47.27662" lon="4.89998">
        <ele>438.7</ele>
        <time>2017-10-24T13:15:08Z</time>
      </trkpt>
      <trkpt lat="47.27653" lon="4.89991">
        <ele>439.4</ele>
        <time>2017-10-24T13:15:17Z</time>
      </trkpt>
      <trkpt lat="47.27645" lon="4.89985">
        <ele>440.1</ele>
        <time>2017-10-24T13:15:26Z</time>
      </trkpt>
      <trkpt lat="47.27636" lon="4.89982">
        <ele>440.4</ele>
        <time>2017-10-24T13:15:31Z</time>
      </trkpt>
      <trkpt lat="47.27627" lon="4.89975">
        <ele>440.6</ele>
        <time>2017-10-24T13:15:51Z</time>
      </trkpt>
      <trkpt lat="47.27618" lon="4.89969">
        <ele>440.6</ele>
        <time>2017-10-24T13:15:56Z</time>
      </trkpt>
      <trkpt lat="47.27611" lon="4.89957">
        <ele>440.9</ele>
        <time>2017-10-24T13:16:05Z</time>
      </trkpt>
      <trkpt lat="47.27603" lon="4.89949">
        <ele>441.3</ele>
        <time>2017-10-24T13:16:14Z</time>
      </trkpt>
      <trkpt lat="47.27594" lon="4.89944">
        <ele>441.6</ele>
        <time>2017-10-24T13:16:22Z</time>
      </trkpt>
      <trkpt lat="47.27586" lon="4.89938">
        <ele>442</ele>
        <time>2017-10-24T13:16:30Z</time>
      </trkpt>
      <trkpt lat="47.27577" lon="4.89932">
        <ele>442.4</ele>
        <time>2017-10-24T13:16:37Z</time>
      </trkpt>
      <trkpt lat="47.27569" lon="4.89924">
        <ele>442.2</ele>
        <time>2017-10-24T13:16:48Z</time>
      </trkpt>
      <trkpt lat="47.2756" lon="4.89919">
        <ele>442.8</ele>
        <time>2017-10-24T13:16:55Z</time>
      </trkpt>
      <trkpt lat="47.27552" lon="4.89915">
        <ele>443.2</ele>
        <time>2017-10-24T13:17:03Z</time>
      </trkpt>
      <trkpt lat="47.27543" lon="4.89909">
        <ele>444.4</ele>
        <time>2017-10-24T13:17:14Z</time>
      </trkpt>
      <trkpt lat="47.27535" lon="4.899">
        <ele>445.4</ele>
        <time>2017-10-24T13:17:25Z</time>
      </trkpt>
      <trkpt lat="47.27526" lon="4.89894">
        <ele>446.2</ele>
        <time>2017-10-24T13:17:37Z</time>
      </trkpt>
      <trkpt lat="47.2752" lon="4.89883">
        <ele>448.3</ele>
        <time>2017-10-24T13:17:52Z</time>
      </trkpt>
      <trkpt lat="47.27521" lon="4.8987">
        <ele>449.9</ele>
        <time>2017-10-24T13:18:01Z</time>
      </trkpt>
      <trkpt lat="47.27526" lon="4.89858">
        <ele>451.5</ele>
        <time>2017-10-24T13:18:10Z</time>
      </trkpt>
      <trkpt lat="47.27521" lon="4.89846">
        <ele>456.6</ele>
        <time>2017-10-24T13:18:26Z</time>
      </trkpt>
      <trkpt lat="47.27515" lon="4.89834">
        <ele>462.1</ele>
        <time>2017-10-24T13:18:41Z</time>
      </trkpt>
      <trkpt lat="47.2751" lon="4.89822">
        <ele>465.7</ele>
        <time>2017-10-24T13:19:11Z</time>
      </trkpt>
      <trkpt lat="47.27508" lon="4.89809">
        <ele>474.1</ele>
        <time>2017-10-24T13:19:41Z</time>
      </trkpt>
      <trkpt lat="47.27505" lon="4.89795">
        <ele>477.9</ele>
        <time>2017-10-24T13:20:39Z</time>
      </trkpt>
      <trkpt lat="47.27504" lon="4.8979">
        <ele>481.3</ele>
        <time>2017-10-24T13:21:45Z</time>
      </trkpt>
      <trkpt lat="47.29465" lon="4.90259">
        <ele>540.1</ele>
        <time>2017-10-24T14:18:29Z</time>
      </trkpt>
      <trkpt lat="47.29471" lon="4.90244">
        <ele>573</ele>
        <time>2017-10-24T14:18:49Z</time>
      </trkpt>
      <trkpt lat="47.2948" lon="4.90238">
        <ele>573.8</ele>
        <time>2017-10-24T14:19:01Z</time>
      </trkpt>
      <trkpt lat="47.29489" lon="4.90234">
        <ele>573.6</ele>
        <time>2017-10-24T14:19:11Z</time>
      </trkpt>
      <trkpt lat="47.29498" lon="4.90233">
        <ele>572.9</ele>
        <time>2017-10-24T14:19:22Z</time>
      </trkpt>
      <trkpt lat="47.29506" lon="4.90228">
        <ele>572.6</ele>
        <time>2017-10-24T14:19:32Z</time>
      </trkpt>
      <trkpt lat="47.29514" lon="4.90221">
        <ele>572.5</ele>
        <time>2017-10-24T14:19:41Z</time>
      </trkpt>
      <trkpt lat="47.29522" lon="4.90214">
        <ele>572.5</ele>
        <time>2017-10-24T14:19:45Z</time>
      </trkpt>
      <trkpt lat="47.29531" lon="4.90209">
        <ele>572.2</ele>
        <time>2017-10-24T14:19:54Z</time>
      </trkpt>
      <trkpt lat="47.2954" lon="4.90207">
        <ele>572.2</ele>
        <time>2017-10-24T14:20:03Z</time>
      </trkpt>
      <trkpt lat="47.29549" lon="4.90205">
        <ele>572.5</ele>
        <time>2017-10-24T14:20:13Z</time>
      </trkpt>
      <trkpt lat="47.29558" lon="4.90202">
        <ele>572.7</ele>
        <time>2017-10-24T14:20:23Z</time>
      </trkpt>
      <trkpt lat="47.29567" lon="4.90199">
        <ele>572.9</ele>
        <time>2017-10-24T14:20:28Z</time>
      </trkpt>
      <trkpt lat="47.29576" lon="4.90194">
        <ele>572.5</ele>
        <time>2017-10-24T14:20:38Z</time>
      </trkpt>
      <trkpt lat="47.29583" lon="4.90185">
        <ele>572.4</ele>
        <time>2017-10-24T14:20:45Z</time>
      </trkpt>
      <trkpt lat="47.2959" lon="4.90177">
        <ele>573</ele>
        <time>2017-10-24T14:21:30Z</time>
      </trkpt>
      <trkpt lat="47.29596" lon="4.90167">
        <ele>571.9</ele>
        <time>2017-10-24T14:22:06Z</time>
      </trkpt>
      <trkpt lat="47.29605" lon="4.90162">
        <ele>572.1</ele>
        <time>2017-10-24T14:22:12Z</time>
      </trkpt>
      <trkpt lat="47.29613" lon="4.90155">
        <ele>572.9</ele>
        <time>2017-10-24T14:22:27Z</time>
      </trkpt>
      <trkpt lat="47.29622" lon="4.9015">
        <ele>572.8</ele>
        <time>2017-10-24T14:22:35Z</time>
      </trkpt>
      <trkpt lat="47.29631" lon="4.90145">
        <ele>572.5</ele>
        <time>2017-10-24T14:22:42Z</time>
      </trkpt>
      <trkpt lat="47.2964" lon="4.9014">
        <ele>572.5</ele>
        <time>2017-10-24T14:22:52Z</time>
      </trkpt>
      <trkpt lat="47.29649" lon="4.90136">
        <ele>572.4</ele>
        <time>2017-10-24T14:23:00Z</time>
      </trkpt>
      <trkpt lat="47.29658" lon="4.90132">
        <ele>573.1</ele>
        <time>2017-10-24T14:23:14Z</time>
      </trkpt>
      <trkpt lat="47.29667" lon="4.90126">
        <ele>573.4</ele>
        <time>2017-10-24T14:23:22Z</time>
      </trkpt>
      <trkpt lat="47.29675" lon="4.90119">
        <ele>573.5</ele>
        <time>2017-10-24T14:23:27Z</time>
      </trkpt>
      <trkpt lat="47.29685" lon="4.90119">
        <ele>572.8</ele>
        <time>2017-10-24T14:23:37Z</time>
      </trkpt>
      <trkpt lat="47.29694" lon="4.90114">
        <ele>572.7</ele>
        <time>2017-10-24T14:23:44Z</time>
      </trkpt>
      <trkpt lat="47.29703" lon="4.90107">
        <ele>572.2</ele>
        <time>2017-10-24T14:23:54Z</time>
      </trkpt>
      <trkpt lat="47.2971" lon="4.90098">
        <ele>571.8</ele>
        <time>2017-10-24T14:24:03Z</time>
      </trkpt>
      <trkpt lat="47.29718" lon="4.90092">
        <ele>571.1</ele>
        <time>2017-10-24T14:24:15Z</time>
      </trkpt>
      <trkpt lat="47.29727" lon="4.90084">
        <ele>571</ele>
        <time>2017-10-24T14:24:22Z</time>
      </trkpt>
      <trkpt lat="47.29735" lon="4.90076">
        <ele>571.4</ele>
        <time>2017-10-24T14:24:27Z</time>
      </trkpt>
      <trkpt lat="47.29743" lon="4.90068">
        <ele>571.7</ele>
        <time>2017-10-24T14:24:36Z</time>
      </trkpt>
      <trkpt lat="47.29751" lon="4.90061">
        <ele>571.6</ele>
        <time>2017-10-24T14:24:46Z</time>
      </trkpt>
      <trkpt lat="47.2976" lon="4.90056">
        <ele>571.6</ele>
        <time>2017-10-24T14:24:52Z</time>
      </trkpt>
      <trkpt lat="47.29769" lon="4.90048">
        <ele>571.7</ele>
        <time>2017-10-24T14:25:04Z</time>
      </trkpt>
      <trkpt lat="47.29779" lon="4.90045">
        <ele>571.9</ele>
        <time>2017-10-24T14:25:13Z</time>
      </trkpt>
      <trkpt lat="47.29788" lon="4.90045">
        <ele>571.9</ele>
        <time>2017-10-24T14:25:19Z</time>
      </trkpt>
      <trkpt lat="47.29798" lon="4.90045">
        <ele>572.4</ele>
        <time>2017-10-24T14:25:28Z</time>
      </trkpt>
      <trkpt lat="47.29807" lon="4.90043">
        <ele>572.8</ele>
        <time>2017-10-24T14:25:37Z</time>
      </trkpt>
      <trkpt lat="47.29817" lon="4.90041">
        <ele>573</ele>
        <time>2017-10-24T14:25:47Z</time>
      </trkpt>
      <trkpt lat="47.29826" lon="4.90038">
        <ele>573.1</ele>
        <time>2017-10-24T14:25:54Z</time>
      </trkpt>
      <trkpt lat="47.29837" lon="4.90033">
        <ele>573</ele>
        <time>2017-10-24T14:26:04Z</time>
      </trkpt>
      <trkpt lat="47.29846" lon="4.90031">
        <ele>573.5</ele>
        <time>2017-10-24T14:26:25Z</time>
      </trkpt>
      <trkpt lat="47.29855" lon="4.90028">
        <ele>573.6</ele>
        <time>2017-10-24T14:26:30Z</time>
      </trkpt>
      <trkpt lat="47.29866" lon="4.90029">
        <ele>573.9</ele>
        <time>2017-10-24T14:26:36Z</time>
      </trkpt>
      <trkpt lat="47.29876" lon="4.90026">
        <ele>574</ele>
        <time>2017-10-24T14:26:45Z</time>
      </trkpt>
      <trkpt lat="47.29886" lon="4.90024">
        <ele>573.4</ele>
        <time>2017-10-24T14:26:54Z</time>
      </trkpt>
      <trkpt lat="47.29895" lon="4.90021">
        <ele>572.6</ele>
        <time>2017-10-24T14:27:14Z</time>
      </trkpt>
      <trkpt lat="47.29908" lon="4.90022">
        <ele>572.9</ele>
        <time>2017-10-24T14:27:17Z</time>
      </trkpt>
      <trkpt lat="47.29921" lon="4.90017">
        <ele>572.1</ele>
        <time>2017-10-24T14:27:32Z</time>
      </trkpt>
      <trkpt lat="47.2993" lon="4.90015">
        <ele>571.9</ele>
        <time>2017-10-24T14:27:47Z</time>
      </trkpt>
      <trkpt lat="47.2994" lon="4.90014">
        <ele>572.1</ele>
        <time>2017-10-24T14:28:03Z</time>
      </trkpt>
      <trkpt lat="47.29951" lon="4.90012">
        <ele>571.6</ele>
        <time>2017-10-24T14:28:14Z</time>
      </trkpt>
      <trkpt lat="47.2996" lon="4.90011">
        <ele>571.1</ele>
        <time>2017-10-24T14:28:20Z</time>
      </trkpt>
      <trkpt lat="47.2997" lon="4.90009">
        <ele>570.4</ele>
        <time>2017-10-24T14:28:33Z</time>
      </trkpt>
      <trkpt lat="47.29979" lon="4.9001">
        <ele>570.2</ele>
        <time>2017-10-24T14:28:38Z</time>
      </trkpt>
      <trkpt lat="47.29988" lon="4.90005">
        <ele>570.1</ele>
        <time>2017-10-24T14:28:44Z</time>
      </trkpt>
      <trkpt lat="47.30001" lon="4.90012">
        <ele>569.6</ele>
        <time>2017-10-24T14:29:11Z</time>
      </trkpt>
      <trkpt lat="47.30011" lon="4.90014">
        <ele>568.6</ele>
        <time>2017-10-24T14:29:21Z</time>
      </trkpt>
      <trkpt lat="47.30028" lon="4.90018">
        <ele>567.6</ele>
        <time>2017-10-24T14:29:43Z</time>
      </trkpt>
      <trkpt lat="47.30041" lon="4.90018">
        <ele>567.2</ele>
        <time>2017-10-24T14:29:54Z</time>
      </trkpt>
      <trkpt lat="47.30052" lon="4.90019">
        <ele>567.3</ele>
        <time>2017-10-24T14:29:56Z</time>
      </trkpt>
      <trkpt lat="47.30065" lon="4.90015">
        <ele>567.6</ele>
        <time>2017-10-24T14:30:06Z</time>
      </trkpt>
      <trkpt lat="47.30074" lon="4.90018">
        <ele>567.4</ele>
        <time>2017-10-24T14:30:14Z</time>
      </trkpt>
      <trkpt lat="47.30086" lon="4.9002">
        <ele>567.5</ele>
        <time>2017-10-24T14:30:20Z</time>
      </trkpt>
      <trkpt lat="47.30096" lon="4.90018">
        <ele>567.5</ele>
        <time>2017-10-24T14:30:25Z</time>
      </trkpt>
      <trkpt lat="47.30105" lon="4.90021">
        <ele>567.2</ele>
        <time>2017-10-24T14:30:32Z</time>
      </trkpt>
      <trkpt lat="47.30117" lon="4.90022">
        <ele>567.1</ele>
        <time>2017-10-24T14:30:37Z</time>
      </trkpt>
      <trkpt lat="47.30129" lon="4.90025">
        <ele>566.5</ele>
        <time>2017-10-24T14:30:44Z</time>
      </trkpt>
      <trkpt lat="47.30138" lon="4.9003">
        <ele>565.8</ele>
        <time>2017-10-24T14:30:53Z</time>
      </trkpt>
      <trkpt lat="47.30146" lon="4.90035">
        <ele>562.8</ele>
        <time>2017-10-24T14:32:18Z</time>
      </trkpt>
      <trkpt lat="47.30157" lon="4.90036">
        <ele>561.8</ele>
        <time>2017-10-24T14:32:37Z</time>
      </trkpt>
      <trkpt lat="47.30167" lon="4.90034">
        <ele>560.6</ele>
        <time>2017-10-24T14:32:57Z</time>
      </trkpt>
      <trkpt lat="47.30176" lon="4.90031">
        <ele>560</ele>
        <time>2017-10-24T14:33:03Z</time>
      </trkpt>
      <trkpt lat="47.30188" lon="4.90029">
        <ele>560.4</ele>
        <time>2017-10-24T14:33:08Z</time>
      </trkpt>
      <trkpt lat="47.30197" lon="4.90026">
        <ele>560.9</ele>
        <time>2017-10-24T14:33:15Z</time>
      </trkpt>
      <trkpt lat="47.30206" lon="4.90027">
        <ele>560.4</ele>
        <time>2017-10-24T14:33:35Z</time>
      </trkpt>
      <trkpt lat="47.30216" lon="4.90026">
        <ele>560.1</ele>
        <time>2017-10-24T14:33:48Z</time>
      </trkpt>
      <trkpt lat="47.30227" lon="4.90026">
        <ele>560.2</ele>
        <time>2017-10-24T14:33:53Z</time>
      </trkpt>
      <trkpt lat="47.30235" lon="4.90023">
        <ele>560.1</ele>
        <time>2017-10-24T14:33:59Z</time>
      </trkpt>
      <trkpt lat="47.30246" lon="4.90024">
        <ele>558.2</ele>
        <time>2017-10-24T14:34:47Z</time>
      </trkpt>
      <trkpt lat="47.30256" lon="4.9003">
        <ele>557.4</ele>
        <time>2017-10-24T14:35:19Z</time>
      </trkpt>
      <trkpt lat="47.30258" lon="4.90044">
        <ele>556.1</ele>
        <time>2017-10-24T14:35:31Z</time>
      </trkpt>
      <trkpt lat="47.30269" lon="4.9005">
        <ele>554.9</ele>
        <time>2017-10-24T14:36:02Z</time>
      </trkpt>
      <trkpt lat="47.30286" lon="4.90057">
        <ele>554.9</ele>
        <time>2017-10-24T14:36:07Z</time>
      </trkpt>
      <trkpt lat="47.30302" lon="4.90061">
        <ele>552.4</ele>
        <time>2017-10-24T14:37:06Z</time>
      </trkpt>
      <trkpt lat="47.30313" lon="4.9006">
        <ele>551.1</ele>
        <time>2017-10-24T14:37:17Z</time>
      </trkpt>
      <trkpt lat="47.30324" lon="4.90065">
        <ele>550.5</ele>
        <time>2017-10-24T14:37:56Z</time>
      </trkpt>
      <trkpt lat="47.30333" lon="4.90072">
        <ele>550.6</ele>
        <time>2017-10-24T14:38:02Z</time>
      </trkpt>
      <trkpt lat="47.30342" lon="4.90072">
        <ele>551</ele>
        <time>2017-10-24T14:38:08Z</time>
      </trkpt>
      <trkpt lat="47.30355" lon="4.9007">
        <ele>551.7</ele>
        <time>2017-10-24T14:38:29Z</time>
      </trkpt>
      <trkpt lat="47.30363" lon="4.90064">
        <ele>550.8</ele>
        <time>2017-10-24T14:38:51Z</time>
      </trkpt>
      <trkpt lat="47.3037" lon="4.90072">
        <ele>550.8</ele>
        <time>2017-10-24T14:39:51Z</time>
      </trkpt>
      <trkpt lat="47.30379" lon="4.90075">
        <ele>549.9</ele>
        <time>2017-10-24T14:40:49Z</time>
      </trkpt>
      <trkpt lat="47.3039" lon="4.90073">
        <ele>548.6</ele>
        <time>2017-10-24T14:41:03Z</time>
      </trkpt>
      <trkpt lat="47.304" lon="4.90074">
        <ele>547.5</ele>
        <time>2017-10-24T14:41:22Z</time>
      </trkpt>
      <trkpt lat="47.30391" lon="4.90079">
        <ele>542.9</ele>
        <time>2017-10-24T14:42:15Z</time>
      </trkpt>
      <trkpt lat="47.30381" lon="4.9008">
        <ele>543.3</ele>
        <time>2017-10-24T14:42:53Z</time>
      </trkpt>
      <trkpt lat="47.30372" lon="4.90084">
        <ele>546.2</ele>
        <time>2017-10-24T14:43:36Z</time>
      </trkpt>
      <trkpt lat="47.30362" lon="4.90084">
        <ele>547.4</ele>
        <time>2017-10-24T14:43:45Z</time>
      </trkpt>
      <trkpt lat="47.30353" lon="4.90079">
        <ele>547.4</ele>
        <time>2017-10-24T14:43:56Z</time>
      </trkpt>
      <trkpt lat="47.30342" lon="4.90079">
        <ele>546.6</ele>
        <time>2017-10-24T14:44:25Z</time>
      </trkpt>
      <trkpt lat="47.30333" lon="4.90075">
        <ele>546.7</ele>
        <time>2017-10-24T14:44:42Z</time>
      </trkpt>
      <trkpt lat="47.30323" lon="4.90075">
        <ele>546.4</ele>
        <time>2017-10-24T14:44:54Z</time>
      </trkpt>
      <trkpt lat="47.30315" lon="4.90068">
        <ele>546.8</ele>
        <time>2017-10-24T14:45:09Z</time>
      </trkpt>
      <trkpt lat="47.30307" lon="4.90056">
        <ele>547.4</ele>
        <time>2017-10-24T14:45:13Z</time>
      </trkpt>
      <trkpt lat="47.30298" lon="4.90048">
        <ele>548.3</ele>
        <time>2017-10-24T14:45:18Z</time>
      </trkpt>
      <trkpt lat="47.30288" lon="4.9004">
        <ele>549.6</ele>
        <time>2017-10-24T14:45:28Z</time>
      </trkpt>
      <trkpt lat="47.30278" lon="4.90034">
        <ele>550.4</ele>
        <time>2017-10-24T14:45:33Z</time>
      </trkpt>
      <trkpt lat="47.30268" lon="4.90031">
        <ele>551.4</ele>
        <time>2017-10-24T14:45:42Z</time>
      </trkpt>
      <trkpt lat="47.30257" lon="4.90032">
        <ele>553.1</ele>
        <time>2017-10-24T14:45:55Z</time>
      </trkpt>
      <trkpt lat="47.30248" lon="4.90035">
        <ele>553.5</ele>
        <time>2017-10-24T14:45:58Z</time>
      </trkpt>
      <trkpt lat="47.30239" lon="4.90035">
        <ele>554.9</ele>
        <time>2017-10-24T14:46:04Z</time>
      </trkpt>
      <trkpt lat="47.30229" lon="4.90038">
        <ele>555.8</ele>
        <time>2017-10-24T14:46:10Z</time>
      </trkpt>
      <trkpt lat="47.3022" lon="4.90037">
        <ele>556.1</ele>
        <time>2017-10-24T14:46:19Z</time>
      </trkpt>
      <trkpt lat="47.30211" lon="4.90038">
        <ele>555.9</ele>
        <time>2017-10-24T14:46:31Z</time>
      </trkpt>
      <trkpt lat="47.302" lon="4.90039">
        <ele>556.7</ele>
        <time>2017-10-24T14:46:42Z</time>
      </trkpt>
      <trkpt lat="47.302" lon="4.90053">
        <ele>557.9</ele>
        <time>2017-10-24T14:47:06Z</time>
      </trkpt>
      <trkpt lat="47.30207" lon="4.90062">
        <ele>556.6</ele>
        <time>2017-10-24T14:47:19Z</time>
      </trkpt>
      <trkpt lat="47.30215" lon="4.90072">
        <ele>556.5</ele>
        <time>2017-10-24T14:47:39Z</time>
      </trkpt>
      <trkpt lat="47.30224" lon="4.90078">
        <ele>556.5</ele>
        <time>2017-10-24T14:47:48Z</time>
      </trkpt>
      <trkpt lat="47.30232" lon="4.90087">
        <ele>555.6</ele>
        <time>2017-10-24T14:48:04Z</time>
      </trkpt>
      <trkpt lat="47.30242" lon="4.90088">
        <ele>553.8</ele>
        <time>2017-10-24T14:48:19Z</time>
      </trkpt>
      <trkpt lat="47.30251" lon="4.90094">
        <ele>551.6</ele>
        <time>2017-10-24T14:48:38Z</time>
      </trkpt>
      <trkpt lat="47.3026" lon="4.90099">
        <ele>550.1</ele>
        <time>2017-10-24T14:48:44Z</time>
      </trkpt>
      <trkpt lat="47.30269" lon="4.90104">
        <ele>547.8</ele>
        <time>2017-10-24T14:48:54Z</time>
      </trkpt>
      <trkpt lat="47.30279" lon="4.90105">
        <ele>545.4</ele>
        <time>2017-10-24T14:49:05Z</time>
      </trkpt>
      <trkpt lat="47.30288" lon="4.90108">
        <ele>540.6</ele>
        <time>2017-10-24T14:49:22Z</time>
      </trkpt>
      <trkpt lat="47.30297" lon="4.90113">
        <ele>537.6</ele>
        <time>2017-10-24T14:49:36Z</time>
      </trkpt>
      <trkpt lat="47.30306" lon="4.90117">
        <ele>534.6</ele>
        <time>2017-10-24T14:49:56Z</time>
      </trkpt>
      <trkpt lat="47.30316" lon="4.90121">
        <ele>533.8</ele>
        <time>2017-10-24T14:50:18Z</time>
      </trkpt>
      <trkpt lat="47.30327" lon="4.90127">
        <ele>533.8</ele>
        <time>2017-10-24T14:50:26Z</time>
      </trkpt>
      <trkpt lat="47.30336" lon="4.9013">
        <ele>530.7</ele>
        <time>2017-10-24T14:50:46Z</time>
      </trkpt>
      <trkpt lat="47.30347" lon="4.90133">
        <ele>529.5</ele>
        <time>2017-10-24T14:50:54Z</time>
      </trkpt>
      <trkpt lat="47.30356" lon="4.90137">
        <ele>527.7</ele>
        <time>2017-10-24T14:51:05Z</time>
      </trkpt>
      <trkpt lat="47.30366" lon="4.90139">
        <ele>527</ele>
        <time>2017-10-24T14:51:14Z</time>
      </trkpt>
      <trkpt lat="47.30376" lon="4.90141">
        <ele>523.5</ele>
        <time>2017-10-24T14:51:33Z</time>
      </trkpt>
      <trkpt lat="47.30387" lon="4.9014">
        <ele>521.5</ele>
        <time>2017-10-24T14:51:40Z</time>
      </trkpt>
      <trkpt lat="47.30397" lon="4.90141">
        <ele>520.8</ele>
        <time>2017-10-24T14:51:55Z</time>
      </trkpt>
      <trkpt lat="47.30407" lon="4.9014">
        <ele>520.5</ele>
        <time>2017-10-24T14:52:02Z</time>
      </trkpt>
      <trkpt lat="47.30416" lon="4.90137">
        <ele>519.5</ele>
        <time>2017-10-24T14:52:19Z</time>
      </trkpt>
      <trkpt lat="47.30425" lon="4.90134">
        <ele>518.1</ele>
        <time>2017-10-24T14:52:32Z</time>
      </trkpt>
      <trkpt lat="47.30435" lon="4.90131">
        <ele>517.4</ele>
        <time>2017-10-24T14:52:36Z</time>
      </trkpt>
      <trkpt lat="47.30444" lon="4.90131">
        <ele>513</ele>
        <time>2017-10-24T14:52:49Z</time>
      </trkpt>
      <trkpt lat="47.30453" lon="4.90127">
        <ele>510.2</ele>
        <time>2017-10-24T14:53:04Z</time>
      </trkpt>
      <trkpt lat="47.30462" lon="4.90125">
        <ele>508.5</ele>
        <time>2017-10-24T14:53:15Z</time>
      </trkpt>
      <trkpt lat="47.30473" lon="4.90122">
        <ele>508.7</ele>
        <time>2017-10-24T14:53:22Z</time>
      </trkpt>
      <trkpt lat="47.30481" lon="4.90116">
        <ele>508.2</ele>
        <time>2017-10-24T14:53:36Z</time>
      </trkpt>
      <trkpt lat="47.3049" lon="4.9011">
        <ele>504.1</ele>
        <time>2017-10-24T14:54:03Z</time>
      </trkpt>
      <trkpt lat="47.30499" lon="4.90114">
        <ele>503.5</ele>
        <time>2017-10-24T14:54:18Z</time>
      </trkpt>
      <trkpt lat="47.30505" lon="4.90124">
        <ele>501.3</ele>
        <time>2017-10-24T14:54:40Z</time>
      </trkpt>
      <trkpt lat="47.30506" lon="4.90141">
        <ele>501.1</ele>
        <time>2017-10-24T14:54:45Z</time>
      </trkpt>
      <trkpt lat="47.3051" lon="4.90154">
        <ele>501.2</ele>
        <time>2017-10-24T14:54:52Z</time>
      </trkpt>
      <trkpt lat="47.30502" lon="4.90163">
        <ele>502</ele>
        <time>2017-10-24T14:55:12Z</time>
      </trkpt>
      <trkpt lat="47.30496" lon="4.90174">
        <ele>501.3</ele>
        <time>2017-10-24T14:55:19Z</time>
      </trkpt>
      <trkpt lat="47.30489" lon="4.90181">
        <ele>503.3</ele>
        <time>2017-10-24T14:55:42Z</time>
      </trkpt>
      <trkpt lat="47.3048" lon="4.90189">
        <ele>503.4</ele>
        <time>2017-10-24T14:56:01Z</time>
      </trkpt>
      <trkpt lat="47.30472" lon="4.90193">
        <ele>502.6</ele>
        <time>2017-10-24T14:56:15Z</time>
      </trkpt>
      <trkpt lat="47.30462" lon="4.90197">
        <ele>499.2</ele>
        <time>2017-10-24T14:56:37Z</time>
      </trkpt>
      <trkpt lat="47.30452" lon="4.90201">
        <ele>497</ele>
        <time>2017-10-24T14:56:50Z</time>
      </trkpt>
      <trkpt lat="47.30442" lon="4.90206">
        <ele>495.8</ele>
        <time>2017-10-24T14:56:57Z</time>
      </trkpt>
      <trkpt lat="47.30432" lon="4.90209">
        <ele>494.8</ele>
        <time>2017-10-24T14:57:14Z</time>
      </trkpt>
      <trkpt lat="47.30424" lon="4.90215">
        <ele>494</ele>
        <time>2017-10-24T14:57:19Z</time>
      </trkpt>
      <trkpt lat="47.30418" lon="4.90225">
        <ele>493.1</ele>
        <time>2017-10-24T14:57:25Z</time>
      </trkpt>
      <trkpt lat="47.30425" lon="4.90234">
        <ele>491</ele>
        <time>2017-10-24T14:57:44Z</time>
      </trkpt>
      <trkpt lat="47.30435" lon="4.90231">
        <ele>484.5</ele>
        <time>2017-10-24T14:58:04Z</time>
      </trkpt>
      <trkpt lat="47.30444" lon="4.90232">
        <ele>481.3</ele>
        <time>2017-10-24T14:58:13Z</time>
      </trkpt>
      <trkpt lat="47.30457" lon="4.90232">
        <ele>479.6</ele>
        <time>2017-10-24T14:58:22Z</time>
      </trkpt>
      <trkpt lat="47.30468" lon="4.90232">
        <ele>478.5</ele>
        <time>2017-10-24T14:58:28Z</time>
      </trkpt>
      <trkpt lat="47.30477" lon="4.90232">
        <ele>476.8</ele>
        <time>2017-10-24T14:58:35Z</time>
      </trkpt>
      <trkpt lat="47.30487" lon="4.90228">
        <ele>469.7</ele>
        <time>2017-10-24T14:58:50Z</time>
      </trkpt>
      <trkpt lat="47.30498" lon="4.90225">
        <ele>464.5</ele>
        <time>2017-10-24T14:58:58Z</time>
      </trkpt>
      <trkpt lat="47.30508" lon="4.9022">
        <ele>462</ele>
        <time>2017-10-24T14:59:02Z</time>
      </trkpt>
      <trkpt lat="47.30517" lon="4.90215">
        <ele>455.5</ele>
        <time>2017-10-24T14:59:21Z</time>
      </trkpt>
      <trkpt lat="47.30527" lon="4.90212">
        <ele>456.1</ele>
        <time>2017-10-24T14:59:28Z</time>
      </trkpt>
      <trkpt lat="47.30537" lon="4.90208">
        <ele>458</ele>
        <time>2017-10-24T14:59:42Z</time>
      </trkpt>
      <trkpt lat="47.30544" lon="4.90198">
        <ele>457</ele>
        <time>2017-10-24T14:59:54Z</time>
      </trkpt>
      <trkpt lat="47.3055" lon="4.90187">
        <ele>456.3</ele>
        <time>2017-10-24T15:00:04Z</time>
      </trkpt>
      <trkpt lat="47.30559" lon="4.90183">
        <ele>456.4</ele>
        <time>2017-10-24T15:00:12Z</time>
      </trkpt>
      <trkpt lat="47.30569" lon="4.9018">
        <ele>456.8</ele>
        <time>2017-10-24T15:00:19Z</time>
      </trkpt>
      <trkpt lat="47.30579" lon="4.90176">
        <ele>458</ele>
        <time>2017-10-24T15:00:24Z</time>
      </trkpt>
      <trkpt lat="47.3059" lon="4.90171">
        <ele>458.9</ele>
        <time>2017-10-24T15:00:27Z</time>
      </trkpt>
      <trkpt lat="47.30599" lon="4.90166">
        <ele>460</ele>
        <time>2017-10-24T15:00:34Z</time>
      </trkpt>
      <trkpt lat="47.30609" lon="4.9016">
        <ele>461.7</ele>
        <time>2017-10-24T15:00:42Z</time>
      </trkpt>
      <trkpt lat="47.30612" lon="4.90147">
        <ele>462.8</ele>
        <time>2017-10-24T15:01:04Z</time>
      </trkpt>
      <trkpt lat="47.30616" lon="4.90134">
        <ele>463.7</ele>
        <time>2017-10-24T15:01:10Z</time>
      </trkpt>
      <trkpt lat="47.30612" lon="4.90121">
        <ele>464.2</ele>
        <time>2017-10-24T15:01:31Z</time>
      </trkpt>
      <trkpt lat="47.30612" lon="4.90104">
        <ele>465.2</ele>
        <time>2017-10-24T15:01:56Z</time>
      </trkpt>
      <trkpt lat="47.3061" lon="4.90088">
        <ele>465.8</ele>
        <time>2017-10-24T15:02:05Z</time>
      </trkpt>
      <trkpt lat="47.30603" lon="4.90079">
        <ele>466.3</ele>
        <time>2017-10-24T15:02:18Z</time>
      </trkpt>
      <trkpt lat="47.306" lon="4.90065">
        <ele>464.8</ele>
        <time>2017-10-24T15:03:14Z</time>
      </trkpt>
      <trkpt lat="47.30604" lon="4.9005">
        <ele>465.1</ele>
        <time>2017-10-24T15:03:21Z</time>
      </trkpt>
      <trkpt lat="47.30603" lon="4.90036">
        <ele>465</ele>
        <time>2017-10-24T15:03:28Z</time>
      </trkpt>
      <trkpt lat="47.306" lon="4.90023">
        <ele>464.9</ele>
        <time>2017-10-24T15:03:38Z</time>
      </trkpt>
      <trkpt lat="47.30599" lon="4.90008">
        <ele>465.1</ele>
        <time>2017-10-24T15:03:48Z</time>
      </trkpt>
      <trkpt lat="47.30601" lon="4.89993">
        <ele>464.5</ele>
        <time>2017-10-24T15:04:14Z</time>
      </trkpt>
      <trkpt lat="47.30603" lon="4.89981">
        <ele>464</ele>
        <time>2017-10-24T15:04:20Z</time>
      </trkpt>
      <trkpt lat="47.30606" lon="4.89968">
        <ele>463.1</ele>
        <time>2017-10-24T15:04:31Z</time>
      </trkpt>
      <trkpt lat="47.30608" lon="4.89952">
        <ele>462.5</ele>
        <time>2017-10-24T15:04:37Z</time>
      </trkpt>
      <trkpt lat="47.30604" lon="4.89938">
        <ele>462</ele>
        <time>2017-10-24T15:04:47Z</time>
      </trkpt>
      <trkpt lat="47.30604" lon="4.89924">
        <ele>461.8</ele>
        <time>2017-10-24T15:04:55Z</time>
      </trkpt>
      <trkpt lat="47.30614" lon="4.89922">
        <ele>462</ele>
        <time>2017-10-24T15:05:16Z</time>
      </trkpt>
      <trkpt lat="47.30624" lon="4.89925">
        <ele>461.9</ele>
        <time>2017-10-24T15:05:26Z</time>
      </trkpt>
      <trkpt lat="47.30633" lon="4.89934">
        <ele>460.3</ele>
        <time>2017-10-24T15:05:37Z</time>
      </trkpt>
      <trkpt lat="47.30638" lon="4.89946">
        <ele>459.3</ele>
        <time>2017-10-24T15:05:45Z</time>
      </trkpt>
      <trkpt lat="47.30645" lon="4.89958">
        <ele>458.3</ele>
        <time>2017-10-24T15:05:56Z</time>
      </trkpt>
      <trkpt lat="47.30655" lon="4.89969">
        <ele>457.1</ele>
        <time>2017-10-24T15:06:01Z</time>
      </trkpt>
      <trkpt lat="47.3066" lon="4.8998">
        <ele>456.1</ele>
        <time>2017-10-24T15:06:08Z</time>
      </trkpt>
      <trkpt lat="47.30666" lon="4.89992">
        <ele>453.2</ele>
        <time>2017-10-24T15:06:28Z</time>
      </trkpt>
      <trkpt lat="47.30674" lon="4.90003">
        <ele>451.9</ele>
        <time>2017-10-24T15:06:37Z</time>
      </trkpt>
      <trkpt lat="47.30677" lon="4.90016">
        <ele>450.1</ele>
        <time>2017-10-24T15:06:50Z</time>
      </trkpt>
      <trkpt lat="47.30684" lon="4.90029">
        <ele>449.1</ele>
        <time>2017-10-24T15:06:58Z</time>
      </trkpt>
      <trkpt lat="47.30692" lon="4.90038">
        <ele>448.1</ele>
        <time>2017-10-24T15:07:05Z</time>
      </trkpt>
      <trkpt lat="47.30699" lon="4.9005">
        <ele>447.8</ele>
        <time>2017-10-24T15:07:13Z</time>
      </trkpt>
      <trkpt lat="47.30706" lon="4.90059">
        <ele>448.1</ele>
        <time>2017-10-24T15:07:19Z</time>
      </trkpt>
      <trkpt lat="47.3071" lon="4.90074">
        <ele>448.8</ele>
        <time>2017-10-24T15:07:30Z</time>
      </trkpt>
      <trkpt lat="47.30715" lon="4.90086">
        <ele>448.9</ele>
        <time>2017-10-24T15:07:36Z</time>
      </trkpt>
      <trkpt lat="47.30718" lon="4.90099">
        <ele>446.4</ele>
        <time>2017-10-24T15:07:53Z</time>
      </trkpt>
      <trkpt lat="47.30723" lon="4.90109">
        <ele>445.5</ele>
        <time>2017-10-24T15:07:58Z</time>
      </trkpt>
      <trkpt lat="47.30726" lon="4.90124">
        <ele>442.8</ele>
        <time>2017-10-24T15:08:09Z</time>
      </trkpt>
      <trkpt lat="47.30729" lon="4.90138">
        <ele>440.3</ele>
        <time>2017-10-24T15:08:27Z</time>
      </trkpt>
      <trkpt lat="47.30734" lon="4.90149">
        <ele>438.2</ele>
        <time>2017-10-24T15:08:44Z</time>
      </trkpt>
      <trkpt lat="47.30741" lon="4.90158">
        <ele>437.1</ele>
        <time>2017-10-24T15:08:52Z</time>
      </trkpt>
      <trkpt lat="47.30745" lon="4.90175">
        <ele>436</ele>
        <time>2017-10-24T15:08:57Z</time>
      </trkpt>
      <trkpt lat="47.30751" lon="4.90186">
        <ele>434.5</ele>
        <time>2017-10-24T15:09:08Z</time>
      </trkpt>
      <trkpt lat="47.30755" lon="4.90198">
        <ele>434.1</ele>
        <time>2017-10-24T15:09:16Z</time>
      </trkpt>
      <trkpt lat="47.3076" lon="4.90211">
        <ele>432.9</ele>
        <time>2017-10-24T15:09:26Z</time>
      </trkpt>
      <trkpt lat="47.30757" lon="4.90225">
        <ele>430.9</ele>
        <time>2017-10-24T15:09:44Z</time>
      </trkpt>
      <trkpt lat="47.3076" lon="4.90238">
        <ele>430.5</ele>
        <time>2017-10-24T15:09:50Z</time>
      </trkpt>
      <trkpt lat="47.30763" lon="4.90253">
        <ele>429.4</ele>
        <time>2017-10-24T15:09:58Z</time>
      </trkpt>
      <trkpt lat="47.30767" lon="4.90265">
        <ele>428.7</ele>
        <time>2017-10-24T15:10:07Z</time>
      </trkpt>
      <trkpt lat="47.30771" lon="4.90278">
        <ele>426.1</ele>
        <time>2017-10-24T15:10:20Z</time>
      </trkpt>
      <trkpt lat="47.3078" lon="4.90287">
        <ele>420.6</ele>
        <time>2017-10-24T15:10:43Z</time>
      </trkpt>
      <trkpt lat="47.3079" lon="4.90287">
        <ele>418.4</ele>
        <time>2017-10-24T15:10:56Z</time>
      </trkpt>
      <trkpt lat="47.30799" lon="4.90289">
        <ele>416</ele>
        <time>2017-10-24T15:11:07Z</time>
      </trkpt>
      <trkpt lat="47.30808" lon="4.90287">
        <ele>414.8</ele>
        <time>2017-10-24T15:11:14Z</time>
      </trkpt>
      <trkpt lat="47.30817" lon="4.90291">
        <ele>413.2</ele>
        <time>2017-10-24T15:11:24Z</time>
      </trkpt>
      <trkpt lat="47.30827" lon="4.90287">
        <ele>412.6</ele>
        <time>2017-10-24T15:11:33Z</time>
      </trkpt>
      <trkpt lat="47.30838" lon="4.90292">
        <ele>411.5</ele>
        <time>2017-10-24T15:11:39Z</time>
      </trkpt>
      <trkpt lat="47.30847" lon="4.90295">
        <ele>410.5</ele>
        <time>2017-10-24T15:11:45Z</time>
      </trkpt>
      <trkpt lat="47.30858" lon="4.90298">
        <ele>409</ele>
        <time>2017-10-24T15:11:54Z</time>
      </trkpt>
      <trkpt lat="47.30867" lon="4.90299">
        <ele>409.4</ele>
        <time>2017-10-24T15:12:03Z</time>
      </trkpt>
      <trkpt lat="47.30877" lon="4.903">
        <ele>408.7</ele>
        <time>2017-10-24T15:12:11Z</time>
      </trkpt>
      <trkpt lat="47.30887" lon="4.90304">
        <ele>408.9</ele>
        <time>2017-10-24T15:12:21Z</time>
      </trkpt>
      <trkpt lat="47.30893" lon="4.90308">
        <ele>405.6</ele>
        <time>2017-10-24T15:13:56Z</time>
      </trkpt>
    </trkseg>
  </trk>
</gpx>